ADDS METAR Data INFO
IDs: Format: Raw Decoded Include TAF

Data at: 1540 UTC 12 Dec 2017

KHHV 121535Z AUTO 34014KT 10SM CLR 22/09 A3027 RMK A01
KHHV 121515Z AUTO 34015KT 10SM CLR 22/09 A3026 RMK A01
KHHV 121455Z AUTO 34015G21KT 10SM CLR 23/08 A3026 RMK A01
KHHV 121435Z AUTO 34017G25KT 10SM CLR 22/08 A3026 RMK A01
KHHV 121415Z AUTO 33019KT 10SM CLR 22/09 A3025 RMK A01
KHHV 121355Z AUTO 33019KT 10SM CLR 22/08 A3024 RMK A01
KHHV 121335Z AUTO 32016KT 10SM CLR 21/10 A3024 RMK A01
KHHV 121315Z AUTO 33016KT 10SM CLR 21/10 A3023 RMK A01
KHHV 121255Z AUTO 33015G20KT 10SM CLR 22/11 A3023 RMK A01
KHHV 121235Z AUTO 32018KT 10SM CLR 22/10 A3022 RMK A01
KHHV 121215Z AUTO 33016KT 10SM CLR 21/10 A3021 RMK A01
KHHV 121155Z AUTO 32015G20KT 10SM FEW022 FEW027 21/09 A3021 RMK A01
KHHV 121130Z AUTO 31016KT 10SM SCT022 SCT028 21/08 A3020 RMK A01
KHHV 121115Z AUTO 32017KT 10SM SCT021 SCT026 21/09 A3020 RMK A01
KHHV 121055Z AUTO 31015KT 10SM SCT024 BKN028 21/09 A3020 RMK A01
KHHV 121035Z AUTO 31016KT 10SM BKN025 BKN030 21/09 A3020 RMK A01
KHHV 121015Z AUTO 31015KT 10SM BKN023 BKN027 BKN031 21/09 A3020 RMK A01
KHHV 120955Z AUTO 30014KT 10SM BKN021 BKN027 BKN031 21/09 A3021 RMK A01
KHHV 120935Z AUTO 30013KT 10SM SCT021 BKN027 21/09 A3021 RMK A01
KHHV 120915Z AUTO 29013KT 10SM SCT020 BKN027 BKN033 21/10 A3021 RMK A01
KHHV 120855Z AUTO 29014KT 10SM SCT020 SCT024 BKN030 21/10 A3022 RMK A01
KHHV 120835Z AUTO 29015KT 10SM SCT021 BKN029 21/10 A3022 RMK A01
KHHV 120815Z AUTO 28012KT 10SM BKN023 BKN030 21/10 A3022 RMK A01
KHHV 120755Z AUTO 30011KT 10SM BKN023 OVC030 21/09 A3022 RMK A01
KHHV 120735Z AUTO 30011KT 10SM BKN023 OVC029 21/10 A3021 RMK A01
KHHV 120715Z AUTO 29013KT 10SM BKN024 OVC030 21/09 A3022 RMK A01
KHHV 120655Z AUTO 29011KT 10SM SCT021 BKN026 BKN030 20/08 A3022 RMK A01
KHHV 120635Z AUTO 27010G15KT 10SM SCT022 BKN028 20/09 A3022 RMK A01
KHHV 120615Z AUTO 29011KT 10SM BKN022 OVC028 20/09 A3023 RMK A01
KHHV 120555Z AUTO 28009KT 10SM BKN022 OVC027 20/08 A3023 RMK A01
KHHV 120535Z AUTO 29010KT 10SM BKN023 BKN028 20/08 A3023 RMK A01
KHHV 120515Z AUTO 28007KT 10SM BKN023 BKN028 20/08 A3023 RMK A01
KHHV 120455Z AUTO 29007G12KT 10SM BKN023 BKN029 20/08 A3023 RMK A01
KHHV 120435Z AUTO 00000KT 10SM BKN023 OVC027 20/07 A3023 RMK A01
KHHV 120415Z AUTO 30009KT 10SM BKN023 OVC027 20/08 A3024 RMK A01
KHHV 120355Z AUTO 31004G10KT 10SM BKN022 BKN027 20/08 A3024 RMK A01
KHHV 120335Z AUTO 31007KT 10SM BKN023 BKN030 20/08 A3024 RMK A01
KHHV 120315Z AUTO 31006KT 10SM SCT021 BKN026 BKN031 20/07 A3024 RMK A01
KHHV 120255Z AUTO 29007KT 10SM SCT021 BKN028 20/07 A3025 RMK A01
KHHV 120235Z AUTO 30008KT 10SM BKN025 BKN029 20/07 A3024 RMK A01
KHHV 120215Z AUTO 29006KT 10SM SCT022 BKN027 20/07 A3025 RMK A01
KHHV 120155Z AUTO 30007KT 10SM BKN022 BKN027 BKN031 20/07 A3025 RMK A01
KHHV 120135Z AUTO 30006KT 10SM SCT021 BKN027 BKN032 20/07 A3025 RMK A01
KHHV 120115Z AUTO 28007KT 10SM BKN023 BKN029 20/06 A3025 RMK A01
KHHV 120055Z AUTO 32004KT 10SM SCT022 BKN027 20/07 A3024 RMK A01
KHHV 120035Z AUTO 32003KT 10SM BKN022 BKN027 20/07 A3024 RMK A01
KHHV 120015Z AUTO 30006KT 10SM SCT023 SCT028 20/07 A3024 RMK A01
KHHV 112355Z AUTO 00000KT 10SM FEW020 FEW025 20/07 A3023 RMK A01
KHHV 112335Z AUTO 29006KT 10SM CLR 20/07 A3023 RMK A01
KHHV 112315Z AUTO 28005KT 10SM CLR 21/07 A3023 RMK A01
KHHV 112255Z AUTO 29006KT 10SM CLR 21/07 A3023 RMK A01
KHHV 112235Z AUTO 27005KT 10SM CLR 21/08 A3024 RMK A01
KHHV 112215Z AUTO 27003KT 10SM CLR 22/08 A3024 RMK A01
KHHV 112155Z AUTO 32004KT 10SM CLR 22/08 A3024 RMK A01
KHHV 112135Z AUTO 30007KT 10SM CLR 23/08 A3024 RMK A01
KHHV 112115Z AUTO VRB03KT 10SM CLR 23/08 A3025 RMK A01
KHHV 112055Z AUTO 31005KT 6SM HZ CLR 23/08 A3025 RMK A01
KHHV 112035Z AUTO 00000KT 10SM CLR 23/08 A3025 RMK A01
KHHV 112015Z AUTO 00000KT 10SM CLR 25/08 A3026 RMK A01
KHHV 111955Z AUTO 00000KT 10SM CLR 24/08 A3027 RMK A01
KHHV 111935Z AUTO 00000KT 10SM CLR 25/08 A3027 RMK A01
KHHV 111915Z AUTO 00000KT 10SM CLR 24/08 A3028 RMK A01
KHHV 111855Z AUTO 00000KT 10SM CLR 25/07 A3028 RMK A01
KHHV 111835Z AUTO 02003KT 10SM CLR 25/07 A3029 RMK A01
KHHV 111815Z AUTO 27004KT 10SM CLR 25/07 A3031 RMK A01
KHHV 111755Z AUTO 29004KT 10SM CLR 26/07 A3032 RMK A01
KHHV 111735Z AUTO 00000KT 10SM CLR 24/07 A3033 RMK A01
KHHV 111715Z AUTO 00000KT 10SM CLR 25/07 A3035 RMK A01
KHHV 111655Z AUTO 00000KT 10SM CLR 24/07 A3036 RMK A01
KHHV 111635Z AUTO 34004KT 10SM CLR 23/07 A3036 RMK A01
KHHV 111615Z AUTO 27003KT 10SM CLR 23/07 A3037 RMK A01
KHHV 111555Z AUTO 30004KT 10SM CLR 23/08 A3037 RMK A01
KHHV 111535Z AUTO 00000KT 10SM CLR 20/07 A3037 RMK A01
KHHV 111515Z AUTO 35004KT 10SM CLR 20/08 A3037 RMK A01
KHHV 111455Z AUTO 03003KT 10SM CLR 21/08 A3036 RMK A01
KHHV 111435Z AUTO 31004KT 10SM CLR 20/08 A3037 RMK A01
KHHV 111415Z AUTO 00000KT 9SM CLR 19/08 A3036 RMK A01
KHHV 111355Z AUTO 32005KT 8SM CLR 19/08 A3036 RMK A01
KHHV 111335Z AUTO 00000KT 10SM CLR 18/09 A3035 RMK A01
KHHV 111315Z AUTO 30006KT 10SM CLR 19/09 A3035 RMK A01
KHHV 111255Z AUTO 32006KT 10SM FEW029 SCT036 19/10 A3035 RMK A01
KHHV 111235Z AUTO 34005KT 10SM FEW025 SCT032 BKN037 18/09 A3035 RMK A01
KHHV 111215Z AUTO 00000G10KT 10SM SCT025 BKN032 OVC037 18/09 A3035 RMK A01
KHHV 111155Z AUTO VRB03KT 10SM SCT025 BKN031 OVC037 18/09 A3035 RMK A01
KHHV 111135Z AUTO 28004KT 10SM FEW023 BKN029 BKN038 18/09 A3034 RMK A01
KHHV 111115Z AUTO 33005KT 10SM FEW027 BKN038 19/09 A3035 RMK A01
KHHV 111055Z AUTO VRB06KT 10SM FEW029 BKN036 19/09 A3035 RMK A01
KHHV 111035Z AUTO 32005G11KT 10SM FEW026 SCT035 19/09 A3036 RMK A01
KHHV 111015Z AUTO 31007KT 10SM FEW029 SCT036 19/09 A3035 RMK A01
KHHV 110955Z AUTO 32006KT 10SM SCT028 BKN034 18/09 A3035 RMK A01
KHHV 110935Z AUTO 35005KT 10SM SCT026 BKN032 18/09 A3035 RMK A01
KHHV 110915Z AUTO 00000KT 10SM SCT023 BKN030 BKN035 18/09 A3035 RMK A01
KHHV 110855Z AUTO 36003KT 10SM BKN023 BKN030 19/09 A3035 RMK A01
KHHV 110835Z AUTO 30004KT 10SM SCT021 BKN027 BKN032 19/09 A3035 RMK A01
KHHV 110815Z AUTO 32005KT 10SM BKN021 BKN027 18/09 A3034 RMK A01
KHHV 110755Z AUTO 35004KT 10SM BKN022 BKN027 BKN033 18/09 A3034 RMK A01
KHHV 110735Z AUTO VRB03KT 10SM SCT022 BKN028 BKN034 18/09 A3035 RMK A01
KHHV 110715Z AUTO VRB03KT 10SM FEW021 SCT026 BKN033 19/09 A3036 RMK A01
KHHV 110655Z AUTO 00000KT 10SM FEW021 SCT025 BKN033 19/08 A3036 RMK A01
KHHV 110635Z AUTO 32004KT 10SM FEW023 SCT032 19/09 A3036 RMK A01
KHHV 110615Z AUTO 36004KT 10SM SCT029 SCT034 19/09 A3036 RMK A01
KHHV 110555Z AUTO 02005KT 10SM FEW022 SCT029 SCT034 19/09 A3036 RMK A01
KHHV 110535Z AUTO 33004KT 10SM SCT022 BKN029 BKN035 18/08 A3037 RMK A01
KHHV 110515Z AUTO 33004KT 10SM BKN023 BKN028 BKN033 19/08 A3038 RMK A01
KHHV 110455Z AUTO 34005KT 10SM FEW023 BKN029 BKN035 19/08 A3038 RMK A01
KHHV 110435Z AUTO 00000KT 10SM FEW026 FEW033 19/08 A3039 RMK A01
KHHV 110415Z AUTO 31006KT 10SM CLR 19/08 A3038 RMK A01
KHHV 110355Z AUTO 34005KT 10SM CLR 18/08 A3038 RMK A01
KHHV 110335Z AUTO 32007KT 10SM FEW023 FEW030 19/08 A3039 RMK A01
KHHV 110315Z AUTO 36003KT 10SM FEW026 SCT032 18/08 A3039 RMK A01
KHHV 110255Z AUTO 32008KT 10SM CLR 19/08 A3038 RMK A01
KHHV 110235Z AUTO 32008KT 10SM CLR 19/08 A3039 RMK A01
KHHV 110215Z AUTO 31007KT 10SM CLR 19/07 A3039 RMK A01
KHHV 110155Z AUTO 33006KT 10SM CLR 19/07 A3039 RMK A01
KHHV 110135Z AUTO 30006KT 10SM CLR 19/07 A3039 RMK A01
KHHV 110115Z AUTO 33007KT 10SM FEW037 19/07 A3039 RMK A01
KHHV 110055Z AUTO 31006KT 10SM FEW023 SCT027 SCT038 19/07 A3039 RMK A01
KHHV 110035Z AUTO 30009KT 10SM SCT026 BKN031 BKN039 19/07 A3038 RMK A01
KHHV 110015Z AUTO 33005G11KT 10SM SCT022 SCT027 BKN032 19/07 A3038 RMK A01
KHHV 102355Z AUTO 00000KT 10SM SCT021 SCT026 19/07 A3038 RMK A01
KHHV 102335Z AUTO 33005KT 10SM CLR 19/07 A3038 RMK A01
KHHV 102315Z AUTO 31007KT 10SM CLR 20/07 A3037 RMK A01
KHHV 102255Z AUTO 33006G11KT 10SM CLR 21/07 A3037 RMK A01
KHHV 102235Z AUTO 32008KT 10SM CLR 22/07 A3037 RMK A01
KHHV 102215Z AUTO 33006KT 10SM CLR 22/07 A3037 RMK A01
KHHV 102155Z AUTO 31007KT 10SM CLR 23/07 A3037 RMK A01
KHHV 102135Z AUTO 33006KT 9SM CLR 23/06 A3037 RMK A01
KHHV 102115Z AUTO 32005KT 9SM CLR 23/07 A3036 RMK A01
KHHV 102055Z AUTO 32007KT 9SM CLR 23/07 A3036 RMK A01
KHHV 102035Z AUTO 29007KT 9SM CLR 23/06 A3037 RMK A01
KHHV 102015Z AUTO 31007KT 10SM CLR 23/07 A3037 RMK A01
KHHV 101955Z AUTO 32006KT 9SM CLR 24/06 A3038 RMK A01
KHHV 101935Z AUTO 31004KT 10SM CLR 24/06 A3038 RMK A01
KHHV 101915Z AUTO 33005KT 9SM CLR 25/06 A3038 RMK A01
KHHV 101855Z AUTO 34004KT 10SM CLR 24/06 A3039 RMK A01
KHHV 101835Z AUTO 34004KT 10SM CLR 23/06 A3039 RMK A01
KHHV 101815Z AUTO 35003KT 10SM CLR 24/07 A3040 RMK A01
KHHV 101755Z AUTO 00000KT 10SM CLR 24/07 A3041 RMK A01
KHHV 101735Z AUTO 03003KT 10SM CLR 24/07 A3042 RMK A01
KHHV 101715Z AUTO VRB03KT 6SM HZ CLR 24/07 A3042 RMK A01
KHHV 101655Z AUTO 03006KT 6SM HZ CLR 23/06 A3043 RMK A01
KHHV 101635Z AUTO 00000KT 9SM CLR 22/06 A3042 RMK A01
KHHV 101615Z AUTO 08006KT 5SM HZ CLR 23/07 A3042 RMK A01
KHHV 101555Z AUTO 06005KT 4SM HZ CLR 21/06 A3043 RMK A01
KHHV 101535Z AUTO 04007KT 8SM CLR 20/06 A3042 RMK A01
KHHV 101515Z AUTO 06006KT 4SM HZ CLR 20/06 A3042 RMK A01
KHHV 101455Z AUTO 05008KT 7SM CLR 21/06 A3042 RMK A01
KHHV 101435Z AUTO 07010KT 5SM HZ CLR 20/06 A3041 RMK A01
KHHV 101415Z AUTO 04010KT 10SM CLR 19/06 A3040 RMK A01
KHHV 101355Z AUTO 04008KT 10SM CLR 18/05 A3040 RMK A01
KHHV 101335Z AUTO 02006G15KT 10SM CLR 18/05 A3040 RMK A01
KHHV 101315Z AUTO 02007G14KT 10SM CLR 18/05 A3039 RMK A01
KHHV 101255Z AUTO 03012KT 10SM CLR 18/05 A3038 RMK A01
KHHV 101235Z AUTO 02007G16KT 10SM FEW050 18/05 A3038 RMK A01
KHHV 101215Z AUTO 04010G18KT 10SM CLR 18/05 A3037 RMK A01
KHHV 101155Z AUTO 02009G15KT 10SM CLR 18/05 A3036 RMK A01
KHHV 101135Z AUTO 03011G16KT 10SM FEW050 18/06 A3035 RMK A01
KHHV 101115Z AUTO 04012KT 10SM FEW050 18/06 A3035 RMK A01
KHHV 101055Z AUTO 03011KT 10SM CLR 18/05 A3034 RMK A01
KHHV 101035Z AUTO 03013KT 10SM CLR 18/06 A3033 RMK A01
KHHV 101015Z AUTO 02010G18KT 340V040 10SM CLR 18/05 A3033 RMK A01
KHHV 100955Z AUTO 03012KT 10SM CLR 18/05 A3034 RMK A01
KHHV 100935Z AUTO 04013KT 10SM CLR 18/05 A3034 RMK A01
KHHV 100915Z AUTO 36008G14KT 10SM CLR 18/05 A3035 RMK A01
KHHV 100855Z AUTO 01009G14KT 10SM CLR 18/06 A3034 RMK A01
KHHV 100835Z AUTO 36007G14KT 10SM CLR 18/05 A3034 RMK A01
KHHV 100815Z AUTO 02009G16KT 10SM CLR 18/05 A3033 RMK A01
KHHV 100755Z AUTO 02011G18KT 10SM FEW049 18/06 A3033 RMK A01
KHHV 100735Z AUTO 01007G15KT 10SM FEW049 18/06 A3033 RMK A01
KHHV 100715Z AUTO 02010G15KT 10SM FEW046 18/07 A3033 RMK A01
KHHV 100655Z AUTO 36009KT 10SM FEW046 17/07 A3033 RMK A01
KHHV 100635Z AUTO 36009KT 10SM SCT046 18/06 A3034 RMK A01
KHHV 100615Z AUTO 36009KT 10SM SCT046 18/07 A3034 RMK A01
KHHV 100555Z AUTO 35010G15KT 10SM FEW047 18/07 A3035 RMK A01
KHHV 100535Z AUTO 36007G13KT 10SM CLR 18/06 A3034 RMK A01
KHHV 100515Z AUTO 35007G13KT 10SM CLR 17/05 A3035 RMK A01
KHHV 100455Z AUTO 36007G12KT 10SM CLR 18/05 A3035 RMK A01
KHHV 100435Z AUTO 35008KT 10SM CLR 17/05 A3034 RMK A01
KHHV 100415Z AUTO 35008KT 10SM CLR 17/05 A3033 RMK A01
KHHV 100355Z AUTO 36009KT 10SM CLR 17/06 A3032 RMK A01
KHHV 100335Z AUTO 35007G13KT 10SM CLR 17/07 A3032 RMK A01
KHHV 100315Z AUTO 36007G15KT 10SM FEW042 17/06 A3032 RMK A01
KHHV 100255Z AUTO 34014KT 10SM SCT043 17/07 A3032 RMK A01
KHHV 100235Z AUTO 35007G14KT 10SM FEW043 17/07 A3032 RMK A01
KHHV 100215Z AUTO 33009G16KT 10SM CLR 17/07 A3031 RMK A01
KHHV 100155Z AUTO 33011KT 10SM CLR 17/07 A3030 RMK A01
KHHV 100135Z AUTO 34009KT 10SM FEW042 17/07 A3029 RMK A01
KHHV 100115Z AUTO 33013KT 10SM SCT042 17/07 A3028 RMK A01
KHHV 100055Z AUTO 34008G16KT 10SM CLR 17/07 A3027 RMK A01
KHHV 100035Z AUTO 33011KT 10SM FEW042 17/07 A3027 RMK A01
KHHV 100015Z AUTO 33013G18KT 10SM FEW043 17/07 A3026 RMK A01
KHHV 092355Z AUTO 31013G19KT 10SM FEW044 18/07 A3025 RMK A01
KHHV 092335Z AUTO 31015KT 10SM FEW045 18/07 A3025 RMK A01
KHHV 092315Z AUTO 31014KT 10SM FEW045 19/06 A3025 RMK A01
KHHV 092255Z AUTO 32014KT 10SM CLR 19/07 A3024 RMK A01
KHHV 092235Z AUTO 31013G18KT 10SM FEW045 20/07 A3024 RMK A01
KHHV 092215Z AUTO 30015KT 9SM CLR 20/06 A3023 RMK A01
KHHV 092155Z AUTO 31013KT 9SM FEW046 21/06 A3022 RMK A01
KHHV 092135Z AUTO 31014G21KT 9SM SCT047 SCT055 21/07 A3022 RMK A01
KHHV 092115Z AUTO 30016KT FEW050 21/06 A3021 RMK A01
KHHV 092055Z AUTO 30014G20KT 10SM FEW050 FEW055 21/07 A3021 RMK A01
KHHV 092035Z AUTO 29018KT 10SM BKN050 21/07 A3021 RMK A01
KHHV 092015Z AUTO 30014KT 10SM SCT055 21/06 A3022 RMK A01
KHHV 091955Z AUTO 29011G21KT 9SM CLR 21/04 A3022 RMK A01
KHHV 091935Z AUTO 30015KT 10SM CLR 21/05 A3022 RMK A01
KHHV 091915Z AUTO 15.68000016G22KT 10SM CLR 21/04 A3023 RMK A01
KHHV 091855Z AUTO 31018KT 9SM FEW060 21/04 A3023 RMK A01
KHHV 091835Z AUTO 29018G25KT 10SM SCT060 21/04 A3025 RMK A01
KHHV 091815Z AUTO 31017KT 10SM SCT060 21/04 A3026 RMK A01
KHHV 091755Z AUTO 31014G24KT 10SM SCT060 21/04 A3027 RMK A01
KHHV 091735Z AUTO 31016KT 10SM FEW060 21/04 A3028 RMK A01
KHHV 091715Z AUTO 31017KT 9SM FEW060 21/04 A3028 RMK A01
KHHV 091655Z AUTO 32015KT 10SM FEW060 20/03 A3028 RMK A01
KHHV 091635Z AUTO 32017KT 9SM FEW055 19/03 A3028 RMK A01
KHHV 091615Z AUTO 32016G23KT 9SM FEW055 20/04 A3027 RMK A01
KHHV 091555Z AUTO 32017G24KT 10SM FEW060 18/04 A3028 RMK A01
KHHV 091535Z AUTO 32018G24KT 10SM SCT055 18/04 A3027 RMK A01
KHHV 091515Z AUTO 33019KT 10SM SCT055 18/04 A3027 RMK A01
KHHV 091455Z AUTO 32018G25KT 10SM SCT055 18/04 A3026 RMK A01
KHHV 091435Z AUTO 32017G23KT 10SM BKN055 18/04 A3025 RMK A01
KHHV 091415Z AUTO 32017G22KT 10SM SCT055 18/04 A3024 RMK A01
KHHV 091355Z AUTO 33015G25KT 10SM BKN055 17/03 A3024 RMK A01
KHHV 091335Z AUTO 31018G25KT 10SM BKN060 17/03 A3023 RMK A01
KHHV 091315Z AUTO 30020G26KT 10SM BKN060 BKN070 17/03 A3023 RMK A01
KHHV 091255Z AUTO 31019G25KT 10SM BKN060 BKN065 17/03 A3022 RMK A01
KHHV 091235Z AUTO 31024KT 10SM BKN060 OVC065 17/04 A3022 RMK A01
KHHV 091215Z AUTO 31020G26KT 10SM BKN060 17/04 A3021 RMK A01
KHHV 091155Z AUTO 31020G26KT 10SM BKN065 17/03 A3021 RMK A01
KHHV 091135Z AUTO 31020G28KT 10SM SCT055 BKN065 17/03 A3020 RMK A01
KHHV 091115Z AUTO 31023G28KT 10SM BKN060 OVC070 17/04 A3019 RMK A01
KHHV 091055Z AUTO 31020KT 10SM SCT060 OVC070 17/03 A3019 RMK A01
KHHV 091035Z AUTO 31019G27KT 10SM BKN060 OVC070 17/03 A3019 RMK A01
KHHV 091015Z AUTO 31020G28KT 10SM SCT060 OVC070 17/03 A3019 RMK A01
KHHV 090955Z AUTO 31016G29KT 10SM SCT060 OVC070 17/03 A3019 RMK A01
KHHV 090935Z AUTO 30021G29KT 10SM FEW060 OVC070 17/02 A3019 RMK A01
KHHV 090915Z AUTO 32021G27KT 10SM SCT060 OVC070 16/02 A3019 RMK A01
KHHV 090855Z AUTO 32021G26KT 10SM SCT060 OVC070 16/03 A3019 RMK A01
KHHV 090835Z AUTO 33022G29KT 10SM FEW060 BKN070 16/03 A3020 RMK A01
KHHV 090815Z AUTO 32024G32KT 10SM SCT065 15/02 A3019 RMK A01
KHHV 090755Z AUTO 32018G28KT 10SM FEW055 SCT065 15/03 A3020 RMK A01
KHHV 090735Z AUTO 32023G30KT 10SM SCT050 BKN065 15/02 A3021 RMK A01
KHHV 090715Z AUTO 32018G30KT 10SM SCT055 BKN065 15/03 A3021 RMK A01
KHHV 090655Z AUTO 33023G30KT 10SM SCT055 BKN065 15/03 A3021 RMK A01
KHHV 090635Z AUTO 33022G30KT 10SM FEW049 SCT055 BKN065 15/03 A3021 RMK A01
KHHV 090615Z AUTO 33024KT 10SM SCT055 OVC070 14/03 A3022 RMK A01
KHHV 090555Z AUTO 34022G33KT 10SM FEW049 BKN060 BKN070 14/02 A3023 RMK A01
KHHV 090535Z AUTO 34026G31KT 10SM FEW049 BKN055 BKN065 14/02 A3023 RMK A01
KHHV 090515Z AUTO 34024G30KT 10SM SCT050 BKN060 13/02 A3023 RMK A01
KHHV 090455Z AUTO 33027G32KT 10SM SCT050 BKN060 13/02 A3023 RMK A01
KHHV 090435Z AUTO 33025G34KT 10SM SCT055 SCT065 13/01 A3024 RMK A01
KHHV 090415Z AUTO 32026G33KT 10SM BKN055 BKN065 13/01 A3023 RMK A01
KHHV 090355Z AUTO 32023G30KT 10SM BKN055 BKN065 13/01 A3023 RMK A01
KHHV 090335Z AUTO 32025G31KT SCT050 BKN060 BKN070 13/01 A3023 RMK A01
KHHV 090315Z AUTO 30029KT 10SM SCT048 BKN060 13/M00 A3022 RMK A01
KHHV 090255Z AUTO 31029G37KT 10SM BKN047 OVC055 13/02 A3022 RMK A01
KHHV 090235Z AUTO 32025G31KT 10SM FEW049 BKN055 BKN065 12/01 A3021 RMK A01
KHHV 090215Z AUTO 32026G34KT 10SM SCT042 BKN048 OVC070 12/M00 A3021 RMK A01
KHHV 090155Z AUTO 32023G31KT 10SM SCT045 BKN060 BKN070 12/02 A3020 RMK A01
KHHV 090135Z AUTO 32024G34KT 10SM FEW043 SCT048 OVC060 12/02 A3018 RMK A01
KHHV 090115Z AUTO 31023G30KT 10SM SCT045 BKN055 OVC065 12/01 A3019 RMK A01
KHHV 090055Z AUTO 31023G29KT 10SM SCT044 BKN050 OVC060 12/01 A3019 RMK A01
KHHV 090035Z AUTO 32022G30KT 10SM BKN047 BKN055 OVC090 12/02 A3017 RMK A01
KHHV 090015Z AUTO 33022G28KT 10SM BKN048 BKN055 OVC090 12/01 A3015 RMK A01
KHHV 082355Z AUTO 34022KT 10SM BKN050 BKN060 OVC080 11/M00 A3015 RMK A01
KHHV 082335Z AUTO 33023KT 10SM BKN048 OVC055 11/00 A3014 RMK A01
KHHV 082315Z AUTO 33018G27KT 10SM SCT045 OVC055 11/00 A3015 RMK A01
KHHV 082255Z AUTO 33024G30KT 10SM BKN043 BKN050 BKN060 11/01 A3012 RMK A01
KHHV 082235Z AUTO 35019G26KT 10SM BKN040 BKN046 BKN065 10/01 A3014 RMK A01
KHHV 082215Z AUTO 33018G28KT 10SM FEW030 BKN037 OVC065 10/03 A3013 RMK A01
KHHV 082155Z AUTO 33025KT 8SM BKN029 OVC035 10/04 A3013 RMK A01
KHHV 082135Z AUTO 34022G31KT 8SM BKN028 OVC034 09/04 A3014 RMK A01
KHHV 082115Z AUTO 33024G31KT 9SM SCT024 BKN029 OVC034 09/04 A3013 RMK A01
KHHV 082055Z AUTO 35016G33KT 9SM SCT023 BKN027 OVC034 10/05 A3013 RMK A01
KHHV 082035Z AUTO 35021G33KT 6SM HZ SCT020 BKN024 OVC035 10/06 A3012 RMK A01
KHHV 082015Z AUTO 34018G34KT 3SM HZ SCT022 BKN028 BKN039 09/06 A3012 RMK A01
KHHV 081955Z AUTO 34024G30KT 9SM FEW020 SCT025 BKN030 10/05 A3012 RMK A01
KHHV 081935Z AUTO 34022G32KT 4SM HZ SCT019 BKN025 BKN030 10/06 A3012 RMK A01
KHHV 081915Z AUTO 35021G31KT 4SM HZ FEW018 FEW023 SCT028 09/06 A3012 RMK A01
KHHV 081855Z AUTO 35024KT 3SM HZ SCT019 SCT027 BKN035 10/06 A3013 RMK A01
KHHV 081835Z AUTO 34024G31KT 9SM SCT021 BKN027 OVC033 10/06 A3014 RMK A01
KHHV 081815Z AUTO 35019G25KT 4SM HZ SCT020 BKN026 OVC041 10/07 A3013 RMK A01
KHHV 081755Z AUTO 35024G36KT 8SM SCT021 BKN027 BKN032 11/07 A3014 RMK A01
KHHV 081735Z AUTO 34027KT 7SM SCT021 BKN027 OVC043 11/07 A3016 RMK A01
KHHV 081715Z AUTO 36015G24KT 6SM HZ BKN021 BKN025 OVC040 11/07 A3016 RMK A01
KHHV 081655Z AUTO 35017G25KT 2SM HZ SCT022 BKN028 BKN035 10/07 A3016 RMK A01
KHHV 081635Z AUTO 36015KT 4SM HZ FEW022 SCT028 BKN035 11/07 A3016 RMK A01
KHHV 081615Z AUTO 35017G24KT 8SM SCT025 BKN034 OVC043 11/06 A3016 RMK A01
KHHV 081555Z AUTO 35015G22KT 10SM BKN024 OVC033 11/06 A3016 RMK A01
KHHV 081535Z AUTO 36016G24KT 6SM HZ SCT022 BKN030 OVC042 12/07 A3014 RMK A01
KHHV 081515Z AUTO 36015KT 9SM FEW025 BKN032 OVC046 12/07 A3014 RMK A01
KHHV 081455Z AUTO 36016G22KT 9SM SCT023 BKN029 OVC041 12/07 A3014 RMK A01
KHHV 081435Z AUTO 36019G25KT 8SM FEW019 BKN023 OVC034 12/07 A3014 RMK A01
KHHV 081415Z AUTO 36015G25KT 8SM BKN023 BKN029 OVC038 12/08 A3013 RMK A01
KHHV 081355Z AUTO 36014G22KT 9SM FEW024 SCT029 BKN039 12/07 A3013 RMK A01
KHHV 081335Z AUTO 35017KT 9SM SCT021 BKN035 OVC043 12/07 A3012 RMK A01
KHHV 081315Z AUTO 35017G25KT 5SM HZ SCT021 BKN026 OVC036 11/07 A3011 RMK A01
KHHV 081255Z AUTO 36018G25KT 3SM HZ SCT022 BKN028 OVC034 11/08 A3009 RMK A01
KHHV 081235Z AUTO 36016G24KT 5SM HZ SCT019 BKN027 OVC032 11/08 A3009 RMK A01
KHHV 081215Z AUTO 01020G26KT 3/4SM HZ BKN017 OVC022 11/08 A3009 RMK A01
KHHV 081155Z AUTO 36018G26KT 2 1/2SM HZ BKN022 BKN026 OVC038 11/08 A3008 RMK A01
KHHV 081135Z AUTO 01023KT 4SM HZ BKN020 BKN025 OVC039 11/09 A3005 RMK A01
KHHV 081115Z AUTO 02024G31KT 2 1/2SM HZ SCT019 BKN025 OVC033 12/09 A3006 RMK A01
KHHV 081055Z AUTO 01023G28KT 3SM HZ SCT020 BKN024 OVC033 12/09 A3007 RMK A01
KHHV 081035Z AUTO 02023G29KT 2SM HZ SCT022 BKN032 OVC038 12/08 A3007 RMK A01 VIS 3/4V5
KHHV 081015Z AUTO 02023G28KT 9SM BKN023 BKN033 OVC042 12/08 A3008 RMK A01
KHHV 080955Z AUTO 01023G29KT 10SM SCT020 BKN025 OVC038 12/08 A3007 RMK A01
KHHV 080935Z AUTO 01021G28KT 7SM FEW019 BKN024 OVC055 12/09 A3007 RMK A01
KHHV 080915Z AUTO 01023G29KT 4SM HZ SCT018 BKN025 OVC050 12/09 A3009 RMK A01
KHHV 080855Z AUTO 01024G31KT 1 1/4SM HZ SCT015 BKN022 OVC036 12/09 A3008 RMK A01
KHHV 080835Z AUTO 01021G32KT 5SM HZ BKN022 OVC028 12/09 A3008 RMK A01
KHHV 080815Z AUTO 02027KT 3SM HZ SCT020 BKN028 OVC040 13/09 A3007 RMK A01
KHHV 080755Z AUTO 02026G31KT 8SM BKN019 BKN024 OVC049 13/10 A3007 RMK A01
KHHV 080735Z AUTO 02027KT 2 1/2SM BR SCT014 BKN021 OVC031 12/10 A3006 RMK A01
KHHV 080715Z AUTO 01023G32KT 2SM BR SCT012 BKN018 OVC042 13/11 A3008 RMK A01
KHHV 080655Z AUTO 01024G33KT 3/4SM BR BKN011 OVC015 13/11 A3007 RMK A01
KHHV 080635Z AUTO 02025G39KT 1 1/4SM BR BKN012 BKN018 OVC025 13/11 A3007 RMK A01
KHHV 080615Z AUTO 03026G32KT 2SM HZ SCT015 BKN023 OVC045 13/11 A3008 RMK A01
KHHV 080555Z AUTO 03027G36KT 2SM HZ FEW011 BKN016 OVC039 14/12 A3006 RMK A01
KHHV 080535Z AUTO 03030G37KT 3SM HZ FEW014 SCT020 BKN028 15/11 A3006 RMK A01
KHHV 080515Z AUTO 04036G42KT 7SM SCT019 BKN027 OVC045 15/11 A3005 RMK A01
KHHV 080455Z AUTO 04035G43KT 4SM HZ FEW006 SCT015 BKN019 14/12 A3004 RMK A01
KHHV 080435Z AUTO 05038KT 2SM HZ SCT014 BKN020 OVC039 15/12 A3002 RMK A01 VIS 1V5
KHHV 080415Z AUTO 04038G44KT 3SM HZ FEW010 SCT017 BKN021 14/12 A3004 RMK A01
KHHV 080355Z AUTO 04036KT 1 3/4SM HZ SCT006 BKN014 OVC031 15/13 A3005 RMK A01 VIS 1 1/4V5
KHHV 080335Z AUTO 05031G41KT 4SM HZ SCT018 BKN023 OVC043 15/12 A3006 RMK A01
KHHV 080315Z AUTO 06035KT 7SM FEW016 BKN022 OVC032 15/12 A3005 RMK A01
KHHV 080255Z AUTO 05037KT 4SM HZ SCT015 BKN021 OVC036 15/12 A3005 RMK A01
KHHV 080235Z AUTO 04033KT 4SM HZ BKN016 BKN020 OVC036 15/12 A3006 RMK A01
KHHV 080215Z AUTO 05034KT 3SM HZ FEW014 BKN019 OVC031 15/12 A3005 RMK A01
KHHV 080155Z AUTO 03026G38KT 4SM HZ FEW016 SCT022 BKN029 16/12 A3005 RMK A01
KHHV 080135Z AUTO 04033G41KT 6SM HZ SCT021 BKN029 OVC040 16/12 A3004 RMK A01
KHHV 080115Z AUTO 05036G41KT 7SM FEW017 BKN022 OVC042 16/12 A3003 RMK A01
KHHV 080055Z AUTO 05036G42KT 6SM HZ FEW015 BKN020 OVC026 15/12 A3002 RMK A01
KHHV 080035Z AUTO 04036G42KT 3SM HZ SCT014 OVC019 15/13 A3002 RMK A01
KHHV 080015Z AUTO 05036KT 3SM HZ FEW013 BKN018 OVC043 16/13 A3002 RMK A01
KHHV 072355Z AUTO 05031G37KT 8SM SCT017 BKN030 OVC050 16/13 A3003 RMK A01
KHHV 072335Z AUTO 05033G39KT 5SM HZ SCT016 BKN021 OVC031 15/12 A3002 RMK A01
KHHV 072315Z AUTO 04032KT 4SM HZ BKN018 BKN023 OVC038 15/13 A3003 RMK A01
KHHV 072255Z AUTO 04029G37KT 2 1/2SM HZ SCT014 SCT020 BKN029 15/13 A3003 RMK A01 VIS 1 1/2V5
KHHV 072235Z AUTO 04032KT 6SM HZ FEW015 SCT021 BKN027 16/12 A3003 RMK A01
KHHV 072215Z AUTO 05028G35KT 10SM FEW016 SCT021 BKN035 16/12 A3003 RMK A01
KHHV 072155Z AUTO 05033KT 6SM HZ FEW015 SCT020 BKN029 16/13 A3003 RMK A01
KHHV 072135Z AUTO 05031G38KT 4SM HZ FEW013 SCT024 BKN029 15/13 A3001 RMK A01
KHHV 072115Z AUTO 04030G36KT 4SM BR FEW018 SCT027 BKN044 15/13 A3003 RMK A01
KHHV 072055Z AUTO 04030G36KT 15/13 A3003 RMK A01
KHHV 072035Z AUTO 04031G39KT 3SM BR FEW012 SCT020 SCT030 15/13 A3003 RMK A01
KHHV 072015Z AUTO 04032KT 2 1/2SM BR SCT011 SCT016 BKN028 16/14 A3003 RMK A01 VIS 2 1/2V3
KHHV 071955Z AUTO 05030G38KT 2SM HZ FEW011 SCT016 SCT024 16/13 A3003 RMK A01
KHHV 071935Z AUTO 05031G38KT 3SM HZ SCT015 BKN020 BKN025 16/13 A3003 RMK A01
KHHV 071915Z AUTO 05033KT 5SM HZ BKN020 OVC024 16/13 A3002 RMK A01
KHHV 071855Z AUTO 05032G38KT 5SM HZ BKN018 OVC023 17/13 A3004 RMK A01
KHHV 071835Z AUTO 06035KT 6SM HZ BKN019 OVC024 17/13 A3005 RMK A01
KHHV 071815Z AUTO 05034KT 4SM HZ BKN019 BKN024 BKN029 16/13 A3007 RMK A01
KHHV 071755Z AUTO 05034G40KT 3SM HZ SCT017 BKN026 BKN032 16/13 A3007 RMK A01
KHHV 071735Z AUTO 05037KT 4SM HZ SCT015 BKN026 17/14 A3009 RMK A01
KHHV 071715Z AUTO 05035G42KT 4SM HZ BKN015 BKN020 OVC027 17/13 A3009 RMK A01
KHHV 071655Z AUTO 05035G41KT 4SM HZ BKN018 BKN027 17/14 A3009 RMK A01
KHHV 071635Z AUTO 05036G41KT 5SM HZ SCT019 17/14 A3009 RMK A01
KHHV 071615Z AUTO 06037G42KT 2 1/2SM HZ FEW016 SCT024 16/14 A3010 RMK A01
KHHV 071555Z AUTO 05035G42KT 3SM HZ SCT015 BKN021 BKN027 17/14 A3010 RMK A01
KHHV 071535Z AUTO 05033G39KT 5SM HZ SCT013 BKN018 BKN026 17/15 A3010 RMK A01
KHHV 071515Z AUTO 05034G39KT 3SM HZ SCT013 BKN018 BKN026 17/15 A3009 RMK A01
KHHV 071455Z AUTO 05034G41KT 3SM HZ FEW014 SCT018 BKN024 18/15 A3008 RMK A01
KHHV 071435Z AUTO 05032KT 5SM HZ SCT019 BKN024 OVC030 18/14 A3009 RMK A01
KHHV 071415Z AUTO 06032KT 8SM SCT020 BKN024 OVC030 18/14 A3008 RMK A01
KHHV 071355Z AUTO 06030KT 7SM BKN019 OVC026 18/14 A3008 RMK A01
KHHV 071335Z AUTO 05030KT 7SM BKN018 OVC027 18/14 A3008 RMK A01
KHHV 071315Z AUTO 06031KT 5SM HZ BKN017 OVC022 17/14 A3008 RMK A01
KHHV 071255Z AUTO 06032KT 7SM SCT016 BKN022 OVC029 18/14 A3006 RMK A01
KHHV 071235Z AUTO 06031KT 10SM FEW016 OVC028 18/14 A3007 RMK A01
KHHV 071215Z AUTO 06028G33KT 9SM SCT016 OVC026 18/14 A3007 RMK A01
KHHV 071155Z AUTO 06030G37KT 7SM SCT014 BKN018 OVC025 17/14 A3006 RMK A01
KHHV 071135Z AUTO 05033KT 4SM HZ BKN015 OVC021 17/15 A3005 RMK A01
KHHV 071115Z AUTO 05031G37KT 7SM BKN015 BKN022 OVC028 18/14 A3005 RMK A01
KHHV 071055Z AUTO 05030G37KT 7SM SCT016 BKN023 OVC028 18/14 A3006 RMK A01
KHHV 071035Z AUTO 06033KT 9SM SCT016 BKN025 OVC029 18/14 A3006 RMK A01
KHHV 071015Z AUTO 06034KT 6SM HZ BKN016 OVC023 18/15 A3006 RMK A01
KHHV 070955Z AUTO 05032KT 3SM HZ BKN013 OVC019 18/15 A3007 RMK A01
KHHV 070935Z AUTO 06032G38KT 6SM HZ SCT015 BKN021 OVC026 19/15 A3007 RMK A01
KHHV 070915Z AUTO 06032KT 8SM BKN018 OVC025 19/15 A3007 RMK A01
KHHV 070855Z AUTO 06030G35KT 6SM HZ SCT019 OVC026 19/15 A3007 RMK A01
KHHV 070835Z AUTO 05030KT 9SM SCT020 OVC027 19/15 A3007 RMK A01
KHHV 070815Z AUTO 06028G35KT 10SM SCT017 BKN023 OVC027 19/15 A3008 RMK A01
KHHV 070755Z AUTO 06031KT 9SM BKN017 OVC023 19/16 A3008 RMK A01
KHHV 070735Z AUTO 05031KT 9SM SCT014 BKN021 OVC029 19/16 A3009 RMK A01
KHHV 070715Z AUTO 05029KT 5SM BR SCT012 BKN017 OVC022 18/16 A3009 RMK A01
KHHV 070655Z AUTO 05027KT 5SM HZ FEW011 BKN017 OVC027 19/16 A3010 RMK A01
KHHV 070635Z AUTO 05026KT 8SM SCT012 BKN017 OVC030 19/16 A3010 RMK A01
KHHV 070615Z AUTO 05026KT 4SM BR SCT011 BKN022 OVC033 18/16 A3011 RMK A01
KHHV 070555Z AUTO 05026KT 3SM BR SCT012 BKN017 OVC027 18/16 A3011 RMK A01
KHHV 070535Z AUTO 05023KT 4SM BR SCT011 BKN017 OVC028 18/16 A3012 RMK A01
KHHV 070515Z AUTO 05026KT 4SM BR SCT011 BKN016 BKN021 18/16 A3012 RMK A01
KHHV 070455Z AUTO 05026KT 3SM HZ BKN013 OVC021 19/16 A3012 RMK A01
KHHV 070435Z AUTO 05027KT 6SM HZ BKN013 OVC020 19/16 A3012 RMK A01
KHHV 070415Z AUTO 05027KT 7SM BKN013 BKN019 OVC024 18/16 A3011 RMK A01
KHHV 070355Z AUTO 06028KT 3SM HZ SCT013 BKN018 OVC023 18/16 A3011 RMK A01
KHHV 070335Z AUTO 05026G33KT 5SM HZ BKN016 OVC022 19/16 A3011 RMK A01
KHHV 070315Z AUTO 06028KT 4SM HZ BKN017 OVC022 19/16 A3011 RMK A01
KHHV 070255Z AUTO 06029KT 6SM HZ BKN018 OVC023 19/15 A3011 RMK A01
KHHV 070235Z AUTO 05028KT 5SM HZ OVC019 19/15 A3011 RMK A01
KHHV 070215Z AUTO 05027G32KT 8SM OVC020 19/15 A3012 RMK A01
KHHV 070155Z AUTO 05029KT 9SM OVC020 19/15 A3011 RMK A01
KHHV 070135Z AUTO 05030G36KT 9SM OVC020 19/15 A3010 RMK A01
KHHV 070115Z AUTO 06033KT 9SM BKN019 OVC023 19/15 A3009 RMK A01
KHHV 070055Z AUTO 05033KT 9SM OVC020 19/15 A3009 RMK A01
KHHV 070035Z AUTO 05033G40KT 9SM OVC019 19/15 A3009 RMK A01
KHHV 070015Z AUTO 05033G42KT 7SM BKN017 OVC022 18/15 A3008 RMK A01
KHHV 062355Z AUTO 05035KT 7SM BKN016 OVC021 18/15 A3008 RMK A01
KHHV 062335Z AUTO 04035G40KT 9SM BKN015 OVC019 18/16 A3008 RMK A01
KHHV 062315Z AUTO 04035KT 6SM BR BKN013 BKN018 BKN025 18/16 A3007 RMK A01
KHHV 062255Z AUTO 04034G39KT 5SM BR SCT011 BKN018 BKN025 18/17 A3008 RMK A01
KHHV 062235Z AUTO 03031G38KT 4SM BR BKN011 BKN016 OVC031 19/17 A3008 RMK A01
KHHV 062215Z AUTO 04031KT 5SM BR FEW010 SCT023 BKN030 19/18 A3008 RMK A01
KHHV 062155Z AUTO 04029G34KT 4SM BR FEW016 FEW021 19/17 A3008 RMK A01
KHHV 062135Z AUTO 03028G34KT 2 1/2SM BR FEW009 FEW015 SCT020 19/17 A3007 RMK A01
KHHV 062115Z AUTO 04028KT 2 1/2SM BR FEW009 SCT016 SCT020 19/18 A3006 RMK A01
KHHV 062055Z AUTO 04028KT 2 1/2SM BR FEW009 FEW016 FEW024 19/18 A3005 RMK A01
KHHV 062035Z AUTO 05028KT 1 3/4SM BR SCT010 SCT016 BKN021 19/18 A3005 RMK A01
KHHV 062015Z AUTO 05029KT 1 3/4SM BR SCT008 BKN014 OVC019 20/18 A3005 RMK A01
KHHV 061955Z AUTO 05028KT 4SM HZ BKN012 BKN020 20/17 A3005 RMK A01
KHHV 061935Z AUTO 06027KT 5SM HZ OVC013 20/17 A3006 RMK A01
KHHV 061915Z AUTO 06028KT 5SM HZ BKN011 OVC015 20/17 A3005 RMK A01
KHHV 061855Z AUTO 07026KT 8SM OVC014 20/17 A3006 RMK A01
KHHV 061835Z AUTO 06026G32KT 9SM OVC013 20/17 A3007 RMK A01
KHHV 061815Z AUTO 07029KT 8SM BKN013 20/17 A3008 RMK A01
KHHV 061755Z AUTO 06030KT 8SM BKN013 20/17 A3008 RMK A01
KHHV 061735Z AUTO 06029KT 9SM FEW009 BKN015 BKN020 20/18 A3010 RMK A01
KHHV 061715Z AUTO 06029KT 5SM BR FEW008 SCT017 BKN022 19/18 A3010 RMK A01
KHHV 061655Z AUTO 06030KT 3SM BR SCT009 BKN015 20/18 A3011 RMK A01
KHHV 061635Z AUTO 06029G34KT 4SM BR BKN010 BKN016 20/18 A3011 RMK A01
KHHV 061615Z AUTO 06031G36KT 7SM BKN010 BKN014 20/18 A3011 RMK A01
KHHV 061555Z AUTO 05031KT 2SM BR SCT010 SCT015 20/18 A3011 RMK A01
KHHV 061535Z AUTO 06028G34KT 4SM HZ SCT011 21/18 A3010 RMK A01
KHHV 061515Z AUTO 05028KT 4SM HZ BKN010 BKN015 21/19 A3010 RMK A01
KHHV 061455Z AUTO 05030KT 6SM HZ OVC012 22/19 A3009 RMK A01
KHHV 061435Z AUTO 05029KT 6SM HZ OVC012 22/19 A3008 RMK A01
KHHV 061415Z AUTO 04030KT 7SM OVC009 22/20 A3009 RMK A01
KHHV 061355Z AUTO 05030KT 5SM BR OVC009 22/20 A3007 RMK A01
KHHV 061335Z AUTO 05027KT 3SM BR BKN010 BKN014 OVC021 22/20 A3006 RMK A01
KHHV 061315Z AUTO 04026KT 2 1/2SM HZ SCT009 BKN015 OVC021 23/20 A3006 RMK A01
KHHV 061255Z AUTO 03021G28KT 8SM BKN013 OVC019 24/21 A3006 RMK A01
KHHV 061235Z AUTO 04023KT 7SM FEW009 SCT015 BKN020 25/21 A3005 RMK A01
KHHV 061215Z AUTO 04019KT 8SM SCT016 SCT026 OVC060 25/21 A3006 RMK A01
KHHV 061155Z AUTO 05018KT 7SM FEW019 BKN033 OVC060 25/21 A3005 RMK A01
KHHV 061135Z AUTO 05018KT 8SM FEW012 SCT017 BKN023 25/21 A3005 RMK A01
KHHV 061115Z AUTO 05016KT 7SM BKN014 BKN023 OVC033 25/21 A3004 RMK A01
KHHV 061055Z AUTO 05017KT 7SM BKN013 BKN090 25/21 A3004 RMK A01
KHHV 061035Z AUTO 07017KT 8SM FEW013 FEW090 24/21 A3004 RMK A01
KHHV 061015Z AUTO 06017KT 7SM SCT013 SCT017 25/21 A3004 RMK A01
KHHV 060955Z AUTO 05015KT 7SM FEW011 FEW017 SCT075 25/21 A3005 RMK A01
KHHV 060935Z AUTO 05015KT 7SM FEW012 BKN075 OVC085 25/21 A3006 RMK A01
KHHV 060915Z AUTO 06018KT 8SM FEW014 SCT025 OVC075 25/21 A3006 RMK A01
KHHV 060855Z AUTO 05017KT 7SM FEW011 SCT020 OVC075 25/21 A3007 RMK A01
KHHV 060835Z AUTO 05015KT 8SM FEW014 SCT019 BKN023 25/21 A3006 RMK A01
KHHV 060815Z AUTO 05017KT 7SM BKN014 BKN019 OVC075 25/21 A3006 RMK A01
KHHV 060755Z AUTO 05015KT 8SM SCT017 SCT031 BKN075 25/21 A3006 RMK A01
KHHV 060735Z AUTO 07016KT 9SM BKN065 BKN075 25/21 A3006 RMK A01
KHHV 060715Z AUTO 06017KT 9SM FEW033 BKN060 OVC070 25/21 A3006 RMK A01
KHHV 060655Z AUTO 05018KT 9SM SCT025 BKN031 OVC070 26/21 A3007 RMK A01
KHHV 060635Z AUTO 05018KT 8SM SCT013 BKN020 OVC025 25/21 A3007 RMK A01
KHHV 060615Z AUTO 05017KT 9SM BKN014 OVC019 25/21 A3007 RMK A01
KHHV 060555Z AUTO 06007G15KT 030V090 9SM BKN015 BKN030 OVC042 25/21 A3008 RMK A01
KHHV 060535Z AUTO 00000KT 9SM FEW025 SCT034 OVC041 25/22 A3008 RMK A01
KHHV 060515Z AUTO 00000KT 9SM SCT024 BKN030 BKN070 25/22 A3009 RMK A01
KHHV 060455Z AUTO 16003KT 8SM FEW023 BKN070 25/22 A3009 RMK A01
KHHV 060435Z AUTO 00000KT 9SM SCT075 25/22 A3010 RMK A01
KHHV 060415Z AUTO 26004KT 10SM FEW017 SCT022 BKN042 25/22 A3010 RMK A01
KHHV 060355Z AUTO 00000KT 9SM FEW016 BKN021 BKN042 25/22 A3010 RMK A01
KHHV 060335Z AUTO 18004KT 8SM BKN017 25/22 A3009 RMK A01
KHHV 060315Z AUTO 18004KT 10SM FEW016 25/22 A3009 RMK A01
KHHV 060255Z AUTO 16004KT 8SM FEW016 25/22 A3008 RMK A01
KHHV 060235Z AUTO VRB04KT 9SM CLR 25/22 A3008 RMK A01
KHHV 060215Z AUTO 16004KT 9SM FEW070 25/21 A3008 RMK A01
KHHV 060155Z AUTO 16004KT 9SM OVC070 25/21 A3008 RMK A01
KHHV 060135Z AUTO 17005KT 9SM OVC065 25/22 A3008 RMK A01
KHHV 060115Z AUTO 16003KT 9SM SCT070 25/22 A3008 RMK A01
KHHV 060055Z AUTO VRB04KT 10SM CLR 25/22 A3008 RMK A01
KHHV 060035Z AUTO 19005KT 9SM CLR 25/21 A3008 RMK A01
KHHV 060015Z AUTO 19006KT 9SM FEW018 FEW025 25/21 A3007 RMK A01
KHHV 052355Z AUTO 19006KT 9SM CLR 25/21 A3006 RMK A01
KHHV 052335Z AUTO 19006KT 9SM FEW020 FEW031 SCT038 26/21 A3006 RMK A01
KHHV 052315Z AUTO 19005KT 9SM SCT020 SCT032 BKN040 26/21 A3006 RMK A01
KHHV 052255Z AUTO 19006KT 8SM SCT020 SCT025 SCT036 26/21 A3006 RMK A01
KHHV 052235Z AUTO 19006KT 9SM CLR 26/21 A3006 RMK A01
KHHV 052215Z AUTO 18007KT 9SM FEW020 FEW025 26/21 A3005 RMK A01
KHHV 052155Z AUTO 20008KT 9SM FEW019 FEW032 FEW040 27/21 A3004 RMK A01
KHHV 052135Z AUTO 20008KT 170V250 10SM FEW019 27/21 A3003 RMK A01
KHHV 052115Z AUTO 19009KT 10SM FEW022 27/21 A3004 RMK A01
KHHV 052055Z AUTO 19009KT 10SM SCT024 SCT029 27/21 A3004 RMK A01
KHHV 052035Z AUTO 18012KT 10SM FEW020 FEW027 SCT032 27/21 A3004 RMK A01
KHHV 052015Z AUTO 18014KT 8SM FEW019 SCT025 SCT033 27/21 A3003 RMK A01
KHHV 051955Z AUTO 18010KT 10SM FEW018 27/22 A3003 RMK A01
KHHV 051935Z AUTO 19012KT 10SM CLR 27/21 A3003 RMK A01
KHHV 051915Z AUTO 18012KT 10SM FEW022 27/21 A3004 RMK A01
KHHV 051855Z AUTO 18015KT 9SM SCT021 SCT028 27/21 A3005 RMK A01
KHHV 051835Z AUTO 18016KT 9SM FEW022 FEW028 27/21 A3006 RMK A01
KHHV 051815Z AUTO 19012G17KT 10SM FEW021 27/21 A3007 RMK A01
KHHV 051755Z AUTO 18012KT 10SM CLR 27/21 A3008 RMK A01
KHHV 051735Z AUTO 17012KT 10SM CLR 27/21 A3008 RMK A01
KHHV 051655Z AUTO 17012G18KT 10SM FEW020 27/21 A3009 RMK A01
KHHV 051635Z AUTO 18017KT 10SM CLR 27/21 A3009 RMK A01
KHHV 051615Z AUTO 18017KT 9SM CLR 27/21 A3009 RMK A01
KHHV 051555Z AUTO 17011G18KT 9SM FEW022 26/21 A3010 RMK A01
KHHV 051535Z AUTO 18017KT 10SM FEW022 26/21 A3010 RMK A01
KHHV 051515Z AUTO 18015KT 10SM FEW020 FEW028 26/21 A3009 RMK A01
KHHV 051455Z AUTO 17012KT 10SM FEW020 FEW028 26/21 A3008 RMK A01
KHHV 051435Z AUTO 17013G20KT 9SM FEW022 26/21 A3007 RMK A01
KHHV 051415Z AUTO 17012G18KT 9SM FEW022 26/21 A3007 RMK A01
KHHV 051355Z AUTO 17013KT 9SM CLR 26/20 A3006 RMK A01
KHHV 051335Z AUTO 18017KT 9SM FEW023 26/20 A3005 RMK A01
KHHV 051315Z AUTO 18016KT 9SM FEW023 26/21 A3004 RMK A01
KHHV 051255Z AUTO 18019KT 9SM FEW024 25/20 A3003 RMK A01
KHHV 051235Z AUTO 16012G21KT 9SM FEW023 25/20 A3003 RMK A01
KHHV 051215Z AUTO 17014G21KT 9SM FEW022 25/20 A3002 RMK A01
KHHV 051155Z AUTO 17016G22KT 9SM CLR 25/21 A3002 RMK A01
KHHV 051135Z AUTO 18017KT 8SM CLR 25/21 A3001 RMK A01
KHHV 051115Z AUTO 18017KT 9SM FEW023 FEW029 FEW045 25/21 A3001 RMK A01
KHHV 051055Z AUTO 18016KT 9SM FEW018 FEW025 FEW045 25/22 A3001 RMK A01
KHHV 051035Z AUTO 18015KT 9SM FEW019 25/21 A3001 RMK A01
KHHV 051015Z AUTO 17017KT 9SM FEW019 SCT027 25/21 A3001 RMK A01
KHHV 050955Z AUTO 17009G17KT 8SM SCT020 SCT027 25/21 A3001 RMK A01
KHHV 050935Z AUTO 17014G20KT 9SM CLR 25/21 A3001 RMK A01
KHHV 050915Z AUTO 17016KT 8SM CLR 25/21 A3000 RMK A01
KHHV 050855Z AUTO 17015KT 9SM CLR 25/21 A3000 RMK A01
KHHV 050835Z AUTO 17010G20KT 8SM CLR 25/21 A3000 RMK A01
KHHV 050815Z AUTO 16011G18KT 8SM CLR 25/21 A3000 RMK A01
KHHV 050755Z AUTO 17014G20KT 9SM FEW049 26/21 A3000 RMK A01
KHHV 050735Z AUTO 18019KT 9SM CLR 26/21 A3000 RMK A01
KHHV 050715Z AUTO 17019KT 9SM CLR 26/21 A2999 RMK A01
KHHV 050655Z AUTO 18019KT 9SM FEW020 FEW025 FEW030 25/21 A2999 RMK A01
KHHV 050635Z AUTO 17016KT 9SM FEW021 FEW030 26/22 A3000 RMK A01
KHHV 050615Z AUTO 18016KT 9SM FEW022 26/21 A2999 RMK A01
KHHV 050555Z AUTO 17011G21KT 10SM FEW024 26/21 A2999 RMK A01
KHHV 050535Z AUTO 17016G23KT 9SM FEW021 FEW050 26/21 A2999 RMK A01
KHHV 050515Z AUTO 17015G22KT 9SM SCT021 SCT030 SCT035 26/21 A2999 RMK A01
KHHV 050455Z AUTO 17017G22KT 8SM SCT021 SCT030 SCT035 26/21 A2999 RMK A01
KHHV 050435Z AUTO 16011G18KT 130V190 8SM SCT021 SCT026 SCT030 26/21 A2998 RMK A01
KHHV 050415Z AUTO 16011G21KT SCT020 SCT025 SCT031 26/21 A2998 RMK A01
KHHV 050355Z AUTO 16011G22KT 8SM CLR 26/21 A2999 RMK A01
KHHV 050335Z AUTO 17014G23KT 9SM FEW021 26/21 A2999 RMK A01
KHHV 050315Z AUTO 16011G23KT 9SM FEW023 26/21 A2998 RMK A01
KHHV 050255Z AUTO 17012G23KT 9SM CLR 26/21 A2997 RMK A01
KHHV 050235Z AUTO 16012G18KT 9SM FEW023 FEW030 26/21 A2997 RMK A01
KHHV 050215Z AUTO 16013G21KT 9SM CLR 26/21 A2998 RMK A01
KHHV 050155Z AUTO 17013G20KT 9SM FEW024 FEW036 26/21 A2999 RMK A01
KHHV 050135Z AUTO 17012G20KT 10SM SCT024 SCT030 BKN036 26/21 A2999 RMK A01
KHHV 050115Z AUTO 16011G18KT 10SM SCT027 SCT036 26/21 A2998 RMK A01
KHHV 050055Z AUTO 17011G17KT 10SM FEW022 SCT028 SCT036 26/21 A2998 RMK A01
KHHV 050035Z AUTO 17012G21KT 10SM SCT024 BKN030 BKN036 26/21 A2997 RMK A01
KHHV 050015Z AUTO 16010G18KT 9SM SCT024 SCT029 26/20 A2996 RMK A01
KHHV 042355Z AUTO 16012G19KT 9SM SCT024 SCT034 26/20 A2996 RMK A01
KHHV 042335Z AUTO 17014G19KT 10SM SCT025 BKN035 26/20 A2996 RMK A01
KHHV 042315Z AUTO 16011G18KT 10SM SCT028 SCT036 26/20 A2995 RMK A01
KHHV 042255Z AUTO 17014G20KT 9SM FEW023 SCT028 26/21 A2994 RMK A01
KHHV 042235Z AUTO 17017KT 9SM SCT022 SCT031 26/21 A2994 RMK A01
KHHV 042215Z AUTO 16012G21KT 9SM CLR 26/20 A2994 RMK A01
KHHV 042155Z AUTO 17015G22KT 9SM FEW023 FEW029 26/20 A2993 RMK A01
KHHV 042135Z AUTO 17012G20KT 10SM FEW023 FEW030 FEW034 26/21 A2994 RMK A01
KHHV 042115Z AUTO 17011G22KT 10SM FEW028 FEW035 FEW045 27/21 A2995 RMK A01
KHHV 042055Z AUTO 17013G22KT 10SM FEW025 FEW034 SCT039 27/20 A2995 RMK A01
KHHV 042035Z AUTO 17016G21KT 10SM FEW023 FEW027 SCT034 26/20 A2995 RMK A01
KHHV 042015Z AUTO 17015G24KT 9SM FEW022 27/21 A2995 RMK A01
KHHV 041955Z AUTO 18020KT 9SM CLR 26/20 A2995 RMK A01
KHHV 041935Z AUTO 17017G23KT 140V200 8SM FEW023 27/21 A2996 RMK A01
KHHV 041915Z AUTO 18022KT 9SM FEW022 FEW028 26/21 A2997 RMK A01
KHHV 041855Z AUTO 17019G25KT 9SM FEW023 26/21 A2997 RMK A01
KHHV 041835Z AUTO 17016G24KT 9SM SCT022 26/21 A2997 RMK A01
KHHV 041815Z AUTO 18020G27KT 9SM FEW029 FEW035 26/20 A2998 RMK A01
KHHV 041755Z AUTO 17021KT 10SM SCT028 SCT034 26/20 A2999 RMK A01
KHHV 041735Z AUTO 17016G25KT 9SM FEW025 FEW030 26/20 A3000 RMK A01
KHHV 041715Z AUTO 17013G24KT 140V200 9SM SCT025 26/20 A3000 RMK A01
KHHV 041655Z AUTO 16014G27KT 9SM FEW023 26/21 A3001 RMK A01
KHHV 041635Z AUTO 16016G27KT 9SM FEW025 FEW031 26/20 A3002 RMK A01
KHHV 041615Z AUTO 16014G25KT 9SM SCT024 SCT034 SCT042 26/20 A3002 RMK A01
KHHV 041555Z AUTO 16016G22KT 9SM SCT022 SCT027 SCT033 26/20 A3002 RMK A01
KHHV 041535Z AUTO 16019G27KT 9SM SCT023 SCT027 BKN040 26/21 A3002 RMK A01
KHHV 041515Z AUTO 15019G26KT 9SM BKN023 BKN031 26/20 A3001 RMK A01
KHHV 041455Z AUTO 15019G25KT 9SM SCT023 SCT034 26/21 A3001 RMK A01
KHHV 041435Z AUTO 17013G22KT 10SM SCT023 SCT034 26/20 A3001 RMK A01
KHHV 041415Z AUTO 16012G24KT 9SM BKN023 BKN029 BKN036 26/21 A3000 RMK A01
KHHV 041355Z AUTO 17014G23KT 10SM SCT024 BKN030 BKN035 26/21 A3000 RMK A01
KHHV 041335Z AUTO 16014G22KT 9SM BKN027 BKN035 26/20 A3000 RMK A01
KHHV 041315Z AUTO 17016G25KT 10SM SCT025 SCT035 25/20 A2999 RMK A01
KHHV 041255Z AUTO 16014G23KT 9SM SCT025 25/20 A2998 RMK A01
KHHV 041235Z AUTO 16017G26KT 10SM FEW025 25/20 A2998 RMK A01
KHHV 041215Z AUTO 16013G22KT 9SM FEW024 FEW036 25/20 A2998 RMK A01
KHHV 041155Z AUTO 15015G23KT 9SM SCT022 SCT028 BKN035 25/20 A2997 RMK A01
KHHV 041135Z AUTO 16009G17KT 10SM SCT023 SCT029 25/20 A2998 RMK A01
KHHV 041115Z AUTO 16012G20KT 9SM SCT026 25/20 A2998 RMK A01
KHHV 041055Z AUTO 16012G19KT 10SM FEW027 25/19 A2998 RMK A01
KHHV 041035Z AUTO 15013G22KT 10SM SCT026 25/19 A2998 RMK A01
KHHV 041015Z AUTO 16016G23KT 10SM SCT025 SCT039 25/20 A2998 RMK A01
KHHV 040955Z AUTO 17012G23KT 9SM BKN024 BKN030 BKN070 25/20 A2998 RMK A01
KHHV 040935Z AUTO 13009KT 8SM SCT025 SCT040 BKN048 24/21 A2999 RMK A01
KHHV 040915Z AUTO 13014G21KT 9SM FEW031 BKN048 OVC055 24/20 A2999 RMK A01
KHHV 040855Z AUTO 14015G26KT 4SM HZ FEW022 SCT030 BKN040 23/20 A2999 RMK A01
KHHV 040835Z AUTO 16017G28KT 8SM SCT022 BKN027 OVC055 25/20 A2999 RMK A01
KHHV 040815Z AUTO 13015G22KT 9SM SCT022 BKN029 BKN120 25/20 A3000 RMK A01
KHHV 040755Z AUTO 13009G18KT 070V160 9SM FEW022 FEW029 SCT120 25/20 A3000 RMK A01
KHHV 040735Z AUTO 13010G20KT 100V180 10SM FEW021 FEW120 25/20 A3001 RMK A01
KHHV 040715Z AUTO 14013G23KT 10SM FEW021 FEW026 SCT120 25/20 A3000 RMK A01
KHHV 040655Z AUTO 14015G21KT 10SM FEW024 BKN120 25/20 A3001 RMK A01
KHHV 040635Z AUTO 14013G19KT 10SM FEW022 SCT120 25/20 A3002 RMK A01
KHHV 040615Z AUTO 14014G21KT 10SM FEW024 FEW031 BKN120 25/20 A3002 RMK A01
KHHV 040555Z AUTO 14013G20KT 10SM SCT024 SCT034 BKN120 25/20 A3003 RMK A01
KHHV 040535Z AUTO 14016G21KT 9SM SCT024 25/20 A3003 RMK A01
KHHV 040515Z AUTO 13011G19KT 090V170 10SM SCT023 SCT120 25/20 A3003 RMK A01
KHHV 040455Z AUTO 15017KT 10SM FEW023 SCT120 25/20 A3004 RMK A01
KHHV 040435Z AUTO 13012G21KT 10SM FEW023 25/20 A3004 RMK A01
KHHV 040415Z AUTO 14014G20KT 10SM SCT024 25/20 A3004 RMK A01
KHHV 040355Z AUTO 13013G19KT 10SM SCT023 SCT029 25/20 A3004 RMK A01
KHHV 040335Z AUTO 15011G18KT 100V260 10SM FEW023 SCT029 25/20 A3004 RMK A01
KHHV 040315Z AUTO 14013KT 10SM SCT023 BKN029 BKN035 25/20 A3004 RMK A01
KHHV 040255Z AUTO 14015KT 10SM SCT023 SCT029 SCT034 25/20 A3004 RMK A01
KHHV 040235Z AUTO 13011G19KT 10SM SCT024 BKN031 25/20 A3004 RMK A01
KHHV 040215Z AUTO 15014KT 10SM FEW024 SCT031 25/20 A3004 RMK A01
KHHV 040155Z AUTO 14012G19KT 10SM FEW023 25/20 A3003 RMK A01
KHHV 040135Z AUTO 15015KT 10SM FEW026 FEW120 25/20 A3003 RMK A01
KHHV 040115Z AUTO 15014KT 10SM FEW024 FEW120 25/20 A3002 RMK A01
KHHV 040055Z AUTO 15014KT 10SM FEW025 25/19 A3001 RMK A01
KHHV 040035Z AUTO 14012G18KT 10SM FEW025 25/20 A3001 RMK A01
KHHV 040015Z AUTO 14012G17KT 10SM FEW025 SCT120 25/19 A3002 RMK A01
KHHV 032355Z AUTO 14012KT 10SM FEW025 SCT120 25/19 A3001 RMK A01
KHHV 032335Z AUTO 14011G17KT 10SM SCT024 SCT120 25/19 A3001 RMK A01
KHHV 032315Z AUTO 14009G16KT 10SM FEW024 SCT120 25/20 A3001 RMK A01
KHHV 032255Z AUTO 13012KT 10SM FEW025 SCT120 25/19 A3001 RMK A01
KHHV 032235Z AUTO 13008G16KT 10SM FEW025 25/20 A3002 RMK A01
KHHV 032215Z AUTO 14011KT 10SM FEW024 FEW120 25/20 A3002 RMK A01
KHHV 032155Z AUTO 13010KT 10SM FEW024 FEW120 26/19 A3002 RMK A01
KHHV 032135Z AUTO 13012KT 10SM FEW024 26/19 A3002 RMK A01
KHHV 032115Z AUTO 14007G17KT 110V180 10SM FEW024 26/20 A3002 RMK A01
KHHV 032055Z AUTO 13011KT 10SM FEW025 26/19 A3003 RMK A01
KHHV 032035Z AUTO 14011KT 10SM SCT025 26/19 A3003 RMK A01
KHHV 032015Z AUTO 13010G16KT 10SM FEW024 26/20 A3004 RMK A01
KHHV 031955Z AUTO 14013G18KT 10SM FEW024 26/19 A3004 RMK A01
KHHV 031935Z AUTO 15017KT 10SM FEW024 26/20 A3005 RMK A01
KHHV 031915Z AUTO 14012G18KT 10SM FEW022 SCT030 26/20 A3006 RMK A01
KHHV 031855Z AUTO 15014KT 10SM FEW024 FEW032 26/20 A3007 RMK A01
KHHV 031835Z AUTO 15014KT 10SM FEW022 FEW032 27/20 A3008 RMK A01
KHHV 031815Z AUTO 14011KT 10SM FEW022 FEW028 27/20 A3009 RMK A01
KHHV 031755Z AUTO 15012KT 10SM FEW022 SCT027 26/20 A3010 RMK A01
KHHV 031735Z AUTO 16011KT 10SM FEW022 SCT029 27/20 A3011 RMK A01
KHHV 031715Z AUTO 16009G15KT 10SM FEW024 FEW029 27/20 A3012 RMK A01
KHHV 031655Z AUTO 15012KT 10SM CLR 27/20 A3013 RMK A01
KHHV 031635Z AUTO 15012KT 10SM FEW023 27/20 A3013 RMK A01
KHHV 031615Z AUTO 15011KT 10SM FEW025 27/20 A3014 RMK A01
KHHV 031555Z AUTO 15012KT 10SM FEW024 FEW036 26/20 A3014 RMK A01
KHHV 031535Z AUTO 15011KT 10SM FEW023 FEW036 26/20 A3014 RMK A01
KHHV 031515Z AUTO 16008G15KT 140V200 10SM SCT022 SCT027 BKN033 26/20 A3013 RMK A01
KHHV 031455Z AUTO 13007G13KT 10SM SCT022 SCT027 SCT033 26/20 A3013 RMK A01
KHHV 031435Z AUTO 14008KT 10SM FEW022 FEW030 FEW038 26/20 A3012 RMK A01
KHHV 031415Z AUTO 14010KT 10SM FEW024 FEW031 SCT038 26/20 A3012 RMK A01
KHHV 031355Z AUTO 15011KT 10SM FEW023 SCT035 25/20 A3012 RMK A01
KHHV 031335Z AUTO 14010G15KT 10SM SCT023 SCT029 SCT036 25/20 A3011 RMK A01
KHHV 031315Z AUTO 14009KT 10SM FEW022 25/20 A3011 RMK A01
KHHV 031255Z AUTO 14009KT 10SM FEW021 FEW032 25/20 A3011 RMK A01
KHHV 031235Z AUTO 14010KT 10SM FEW024 SCT029 SCT033 25/20 A3010 RMK A01
KHHV 031215Z AUTO 15012KT 10SM SCT025 25/19 A3010 RMK A01
KHHV 031155Z AUTO 15011KT 10SM BKN026 25/20 A3010 RMK A01
KHHV 031135Z AUTO 15011KT 10SM SCT025 BKN029 25/20 A3009 RMK A01
KHHV 031115Z AUTO 15011G16KT 10SM BKN023 BKN029 25/19 A3008 RMK A01
KHHV 031055Z AUTO 14011KT 10SM BKN024 25/20 A3008 RMK A01
KHHV 031035Z AUTO 15011KT 10SM BKN025 OVC029 25/20 A3008 RMK A01
KHHV 031015Z AUTO 14008KT 10SM BKN026 25/20 A3008 RMK A01
KHHV 030955Z AUTO 14009KT 10SM SCT022 SCT029 25/20 A3008 RMK A01
KHHV 030935Z AUTO 15012KT 10SM BKN023 BKN030 25/20 A3008 RMK A01
KHHV 030915Z AUTO 13008KT 10SM SCT021 SCT027 25/20 A3009 RMK A01
KHHV 030855Z AUTO 13010KT 10SM SCT022 BKN028 25/20 A3009 RMK A01
KHHV 030835Z AUTO 14010KT 10SM SCT022 25/20 A3009 RMK A01
KHHV 030815Z AUTO 14009KT 10SM FEW022 25/20 A3009 RMK A01
KHHV 030755Z AUTO 13009KT 10SM CLR 25/19 A3010 RMK A01
KHHV 030735Z AUTO 14009KT 10SM FEW025 25/19 A3010 RMK A01
KHHV 030715Z AUTO 13009KT 10SM SCT026 25/19 A3011 RMK A01
KHHV 030655Z AUTO 14008G14KT 10SM FEW024 25/19 A3011 RMK A01
KHHV 030635Z AUTO 14008KT 10SM SCT024 BKN029 25/19 A3011 RMK A01
KHHV 030615Z AUTO 13010G16KT 10SM SCT024 BKN030 25/19 A3012 RMK A01
KHHV 030555Z AUTO 14009KT 10SM SCT023 SCT033 25/20 A3012 RMK A01
KHHV 030535Z AUTO 14010G16KT 100V160 10SM SCT023 SCT030 25/20 A3012 RMK A01
KHHV 030515Z AUTO 13009G14KT 100V160 10SM BKN023 BKN028 25/20 A3013 RMK A01
KHHV 030455Z AUTO 13010KT 10SM FEW022 FEW028 25/20 A3013 RMK A01
KHHV 030435Z AUTO 13009KT 10SM FEW023 25/20 A3014 RMK A01
KHHV 030415Z AUTO 13009G14KT 10SM CLR 25/20 A3013 RMK A01
KHHV 030355Z AUTO 13009KT 10SM CLR 25/20 A3012 RMK A01
KHHV 030335Z AUTO 13008G15KT 10SM CLR 25/20 A3012 RMK A01
KHHV 030315Z AUTO 13009G14KT 10SM CLR 25/20 A3012 RMK A01
KHHV 030255Z AUTO 12008KT 080V140 10SM FEW022 25/20 A3012 RMK A01
KHHV 030235Z AUTO 12009KT 10SM FEW022 25/20 A3013 RMK A01
KHHV 030215Z AUTO 12008KT 10SM FEW023 25/20 A3012 RMK A01
KHHV 030155Z AUTO 12008KT 10SM SCT024 SCT029 25/20 A3012 RMK A01
KHHV 030135Z AUTO VRB05G11KT 10SM SCT025 SCT030 25/21 A3011 RMK A01
KHHV 030115Z AUTO 11006KT 10SM BKN025 BKN032 25/21 A3011 RMK A01
KHHV 030055Z AUTO VRB05KT 10SM SCT024 SCT032 BKN120 25/20 A3011 RMK A01
KHHV 030035Z AUTO 11007KT 10SM FEW023 BKN120 24/21 A3010 RMK A01
KHHV 030015Z AUTO 13006KT 10SM OVC110 24/19 A3009 RMK A01
KHHV 022355Z AUTO 14011KT 9SM FEW043 BKN100 OVC120 24/20 A3009 RMK A01
KHHV 022335Z AUTO 16007KT 10SM FEW020 SCT065 OVC100 24/21 A3009 RMK A01
KHHV 022315Z AUTO VRB05KT 7SM FEW020 SCT030 BKN065 24/20 A3009 RMK A01
KHHV 022255Z AUTO 11010KT 10SM FEW020 BKN030 BKN100 27/20 A3009 RMK A01
KHHV 022235Z AUTO 10009KT 10SM SCT032 SCT065 BKN120 28/20 A3008 RMK A01
KHHV 022215Z AUTO 10008KT 10SM SCT033 BKN065 28/20 A3008 RMK A01
KHHV 022155Z AUTO VRB05KT 10SM CLR 29/20 A3008 RMK A01
KHHV 022135Z AUTO 12006KT 10SM SCT037 SCT060 SCT075 29/20 A3008 RMK A01
KHHV 022115Z AUTO 12006KT 10SM FEW020 SCT038 BKN050 29/20 A3008 RMK A01
KHHV 022055Z AUTO 09005KT 10SM BKN020 BKN024 BKN028 31/21 A3009 RMK A01
KHHV 022035Z AUTO 10007KT 10SM BKN019 BKN025 32/21 A3009 RMK A01
KHHV 022015Z AUTO 09008KT 10SM FEW020 FEW032 32/21 A3009 RMK A01
KHHV 021955Z AUTO 09007KT 10SM CLR 32/20 A3009 RMK A01
KHHV 021935Z AUTO 10007KT 10SM CLR 32/20 A3010 RMK A01
KHHV 021915Z AUTO 11006KT 10SM CLR 31/20 A3010 RMK A01
KHHV 021855Z AUTO 12007KT 10SM CLR 31/20 A3011 RMK A01
KHHV 021835Z AUTO 10009KT 10SM CLR 33/21 A3012 RMK A01
KHHV 021815Z AUTO 10009KT 10SM CLR 33/21 A3013 RMK A01
KHHV 021755Z AUTO 09010KT 10SM FEW020 33/21 A3014 RMK A01
KHHV 021735Z AUTO 09010KT 10SM FEW020 33/21 A3014 RMK A01
KHHV 021715Z AUTO 09009KT 10SM CLR 33/21 A3015 RMK A01
KHHV 021655Z AUTO 08009KT 9SM FEW018 33/21 A3015 RMK A01
KHHV 021635Z AUTO 09009KT 10SM FEW018 FEW025 32/21 A3016 RMK A01
KHHV 021615Z AUTO 09009KT 10SM FEW019 31/21 A3016 RMK A01
KHHV 021555Z AUTO 09007KT 10SM FEW018 30/20 A3016 RMK A01
KHHV 021535Z AUTO 10007KT 10SM FEW019 29/20 A3015 RMK A01
KHHV 021515Z AUTO 08008KT 10SM FEW020 28/20 A3015 RMK A01
KHHV 021455Z AUTO 10007KT 10SM SCT022 SCT030 28/20 A3015 RMK A01
KHHV 021435Z AUTO 07007KT 10SM CLR 26/20 A3014 RMK A01
KHHV 021415Z AUTO 07007KT 10SM FEW028 26/20 A3014 RMK A01
KHHV 021355Z AUTO 07007KT 10SM CLR 25/20 A3013 RMK A01
KHHV 021335Z AUTO 07006KT 10SM FEW030 25/20 A3013 RMK A01
KHHV 021315Z AUTO 07006KT 10SM SCT030 25/20 A3012 RMK A01
KHHV 021255Z AUTO 08006KT 10SM SCT032 26/20 A3012 RMK A01
KHHV 021235Z AUTO 09007KT 10SM FEW020 BKN032 25/20 A3011 RMK A01
KHHV 021215Z AUTO 07006KT 10SM FEW020 OVC032 25/20 A3011 RMK A01
KHHV 021155Z AUTO 08006KT 10SM SCT020 SCT024 OVC030 25/20 A3010 RMK A01
KHHV 021135Z AUTO 08007KT 10SM BKN021 OVC028 25/20 A3010 RMK A01
KHHV 021115Z AUTO 08005KT 10SM BKN024 BKN029 25/20 A3009 RMK A01
KHHV 021055Z AUTO 09006KT 10SM FEW027 25/19 A3009 RMK A01
KHHV 021035Z AUTO 08005KT 10SM FEW028 24/19 A3009 RMK A01
KHHV 021015Z AUTO 07005KT 10SM CLR 25/19 A3009 RMK A01
KHHV 020955Z AUTO VRB04KT 10SM SCT023 BKN028 24/19 A3009 RMK A01
KHHV 020935Z AUTO 00000KT 10SM BKN023 BKN028 24/19 A3009 RMK A01
KHHV 020915Z AUTO 00000KT 10SM BKN024 BKN029 24/19 A3009 RMK A01
KHHV 020855Z AUTO VRB05KT 10SM BKN024 25/19 A3010 RMK A01
KHHV 020835Z AUTO 09005KT 10SM OVC024 25/19 A3010 RMK A01
KHHV 020815Z AUTO 10007KT 10SM BKN024 25/18 A3010 RMK A01
KHHV 020755Z AUTO 10007KT 10SM SCT024 24/18 A3010 RMK A01
KHHV 020735Z AUTO 11008KT 10SM CLR 24/18 A3011 RMK A01
KHHV 020715Z AUTO 10008KT 10SM FEW026 25/18 A3012 RMK A01
KHHV 020655Z AUTO 10007KT 10SM BKN026 24/18 A3012 RMK A01
KHHV 020635Z AUTO 11007KT 10SM BKN026 25/17 A3012 RMK A01
KHHV 020615Z AUTO 10007KT 10SM SCT025 SCT030 24/17 A3012 RMK A01
KHHV 020555Z AUTO 11007KT 070V140 10SM CLR 24/17 A3013 RMK A01
KHHV 020535Z AUTO 10009KT 10SM CLR 24/17 A3013 RMK A01
KHHV 020515Z AUTO 10008KT 10SM FEW026 24/17 A3013 RMK A01
KHHV 020455Z AUTO 10010KT 10SM FEW027 24/17 A3013 RMK A01
KHHV 020435Z AUTO 10010KT 10SM CLR 24/16 A3014 RMK A01
KHHV 020415Z AUTO 10011KT 10SM FEW027 24/16 A3014 RMK A01
KHHV 020355Z AUTO 09011KT 10SM FEW027 25/16 A3014 RMK A01
KHHV 020335Z AUTO 09011KT 10SM CLR 24/16 A3014 RMK A01
KHHV 020315Z AUTO 08010KT 10SM CLR 24/15 A3014 RMK A01
KHHV 020255Z AUTO 08011KT 10SM CLR 24/15 A3014 RMK A01
KHHV 020235Z AUTO 08011KT 10SM CLR 24/15 A3014 RMK A01
KHHV 020215Z AUTO 08011KT 10SM CLR 24/15 A3013 RMK A01
KHHV 020155Z AUTO 07011KT 10SM CLR 24/15 A3012 RMK A01
KHHV 020135Z AUTO 06012KT 10SM CLR 24/15 A3012 RMK A01
KHHV 020115Z AUTO 06012KT 10SM CLR 24/14 A3012 RMK A01
KHHV 020055Z AUTO 06011KT 10SM CLR 24/14 A3012 RMK A01
KHHV 020035Z AUTO 06011KT 10SM CLR 24/14 A3011 RMK A01
KHHV 020015Z AUTO 06012KT 10SM CLR 24/15 A3011 RMK A01
KHHV 012355Z AUTO 05012KT 10SM CLR 24/15 A3010 RMK A01
KHHV 012335Z AUTO 05012KT 10SM CLR 25/15 A3010 RMK A01
KHHV 012315Z AUTO 05013KT 10SM CLR 25/15 A3009 RMK A01
KHHV 012255Z AUTO 05013KT 10SM CLR 27/16 A3010 RMK A01
KHHV 012235Z AUTO 05011KT 10SM CLR 28/16 A3010 RMK A01
KHHV 012215Z AUTO 05010KT 10SM CLR 28/16 A3009 RMK A01
KHHV 012155Z AUTO 05011KT 10SM CLR 28/16 A3009 RMK A01
KHHV 012135Z AUTO 06010KT 10SM CLR 29/16 A3009 RMK A01
KHHV 012115Z AUTO 05009KT 10SM CLR 28/16 A3010 RMK A01
KHHV 012055Z AUTO 05010KT 10SM CLR 29/16 A3010 RMK A01
KHHV 012035Z AUTO 06011KT 10SM CLR 29/16 A3010 RMK A01
KHHV 012015Z AUTO 06010KT 10SM CLR 28/16 A3010 RMK A01
KHHV 011955Z AUTO 07010KT 9SM CLR 28/16 A3010 RMK A01
KHHV 011935Z AUTO 05012KT 9SM CLR 29/16 A3011 RMK A01
KHHV 011915Z AUTO 06009KT 10SM CLR 29/16 A3012 RMK A01
KHHV 011855Z AUTO 05010KT 10SM CLR 29/16 A3013 RMK A01
KHHV 011835Z AUTO 06009KT 10SM CLR 29/16 A3014 RMK A01
KHHV 011815Z AUTO 06012KT 10SM CLR 29/16 A3014 RMK A01
KHHV 011755Z AUTO 06012KT 10SM CLR 29/16 A3015 RMK A01
KHHV 011735Z AUTO 05013KT 10SM CLR 29/16 A3015 RMK A01
KHHV 011715Z AUTO 05013KT 9SM CLR 29/16 A3016 RMK A01
KHHV 011655Z AUTO 05012KT 10SM CLR 29/16 A3017 RMK A01
KHHV 011635Z AUTO 05011KT 10SM CLR 28/16 A3018 RMK A01
KHHV 011615Z AUTO 05012KT 10SM CLR 27/16 A3018 RMK A01
KHHV 011555Z AUTO 05013KT 10SM CLR 26/16 A3018 RMK A01
KHHV 011535Z AUTO 05014KT 10SM CLR 25/16 A3018 RMK A01
KHHV 011515Z AUTO 06014KT 10SM CLR 25/16 A3018 RMK A01
KHHV 011455Z AUTO 06015KT 10SM CLR 25/16 A3017 RMK A01
KHHV 011435Z AUTO 05014KT 10SM CLR 25/16 A3017 RMK A01
KHHV 011415Z AUTO 05014KT 10SM CLR 24/16 A3016 RMK A01
KHHV 011355Z AUTO 05014KT 9SM CLR 24/16 A3016 RMK A01
KHHV 011335Z AUTO 05015KT 9SM CLR 24/16 A3016 RMK A01
KHHV 011315Z AUTO 05013KT 9SM CLR 23/16 A3016 RMK A01
KHHV 011255Z AUTO 05015KT 10SM CLR 23/16 A3015 RMK A01
KHHV 011235Z AUTO 05014KT 9SM CLR 23/16 A3015 RMK A01
KHHV 011215Z AUTO 05015KT 10SM CLR 23/16 A3014 RMK A01
KHHV 011155Z AUTO 04014KT 10SM CLR 23/15 A3013 RMK A01
KHHV 011135Z AUTO 04015KT 10SM CLR 24/15 A3013 RMK A01
KHHV 011115Z AUTO 04013G18KT 10SM CLR 24/16 A3012 RMK A01
KHHV 011055Z AUTO 05013KT 10SM CLR 24/16 A3012 RMK A01
KHHV 011035Z AUTO 04013KT 10SM CLR 24/16 A3012 RMK A01
KHHV 011015Z AUTO 04013KT 10SM CLR 24/16 A3012 RMK A01
KHHV 010955Z AUTO 04013KT 10SM CLR 24/15 A3013 RMK A01
KHHV 010935Z AUTO 04013KT 10SM CLR 24/15 A3012 RMK A01
KHHV 010915Z AUTO 05013KT 10SM CLR 24/15 A3012 RMK A01
KHHV 010855Z AUTO 05013KT 10SM CLR 24/15 A3012 RMK A01
KHHV 010835Z AUTO 05015KT 10SM CLR 24/15 A3012 RMK A01
KHHV 010815Z AUTO 04014KT 10SM CLR 24/15 A3012 RMK A01
KHHV 010755Z AUTO 05014KT 10SM CLR 24/15 A3013 RMK A01
KHHV 010735Z AUTO 05013KT 10SM CLR 24/14 A3013 RMK A01
KHHV 010715Z AUTO 05014KT 10SM CLR 24/14 A3013 RMK A01
KHHV 010655Z AUTO 05016KT 10SM CLR 24/14 A3013 RMK A01
KHHV 010635Z AUTO 06016KT 10SM CLR 24/14 A3014 RMK A01
KHHV 010615Z AUTO 05015KT 10SM CLR 24/14 A3014 RMK A01
KHHV 010555Z AUTO 05017KT 10SM CLR 24/14 A3015 RMK A01
KHHV 010535Z AUTO 04017KT 10SM CLR 24/14 A3015 RMK A01
KHHV 010515Z AUTO 05017KT 10SM CLR 24/14 A3015 RMK A01
KHHV 010455Z AUTO 04017KT 10SM CLR 24/15 A3015 RMK A01
KHHV 010435Z AUTO 05018KT 10SM CLR 24/15 A3015 RMK A01
KHHV 010415Z AUTO 04019KT 10SM CLR 24/15 A3015 RMK A01
KHHV 010355Z AUTO 05019KT 10SM CLR 24/15 A3015 RMK A01
KHHV 010335Z AUTO 05017KT 10SM CLR 24/15 A3014 RMK A01
KHHV 010315Z AUTO 05016KT 10SM CLR 24/15 A3015 RMK A01
KHHV 010255Z AUTO 05016KT 10SM CLR 24/16 A3014 RMK A01
KHHV 010235Z AUTO 04017KT 10SM CLR 24/15 A3014 RMK A01
KHHV 010215Z AUTO 05018KT 10SM CLR 24/16 A3014 RMK A01
KHHV 010155Z AUTO 05016KT 10SM CLR 24/16 A3013 RMK A01
KHHV 010135Z AUTO 05017KT 10SM CLR 24/16 A3013 RMK A01
KHHV 010115Z AUTO 05017KT 10SM CLR 24/17 A3012 RMK A01
KHHV 010055Z AUTO 05016KT 10SM CLR 24/17 A3012 RMK A01
KHHV 010035Z AUTO 05016KT 10SM CLR 24/17 A3012 RMK A01
KHHV 010015Z AUTO 05016KT 10SM CLR 24/17 A3012 RMK A01
KHHV 302355Z AUTO 04014KT 9SM CLR 24/17 A3011 RMK A01
KHHV 302335Z AUTO 04015KT 10SM FEW026 24/17 A3011 RMK A01
KHHV 302315Z AUTO 04015KT 10SM CLR 25/17 A3010 RMK A01
KHHV 302255Z AUTO 05016KT 10SM FEW023 26/17 A3010 RMK A01
KHHV 302235Z AUTO 04016KT 10SM FEW023 26/17 A3010 RMK A01
KHHV 302215Z AUTO 03014KT 10SM SCT024 26/17 A3010 RMK A01
KHHV 302155Z AUTO 03015G20KT 10SM BKN025 BKN031 BKN037 25/17 A3010 RMK A01
KHHV 302135Z AUTO 03014KT 10SM BKN025 BKN030 BKN036 25/18 A3010 RMK A01
KHHV 302115Z AUTO 03015KT 10SM SCT024 BKN029 BKN037 25/18 A3010 RMK A01
KHHV 302055Z AUTO 02013KT 10SM SCT023 BKN028 BKN035 26/18 A3010 RMK A01
KHHV 302035Z AUTO 02013KT 9SM SCT023 SCT030 SCT036 26/18 A3010 RMK A01
KHHV 302015Z AUTO 03014KT 10SM CLR 26/18 A3010 RMK A01
KHHV 301955Z AUTO 03013KT 10SM FEW021 FEW027 26/18 A3011 RMK A01
KHHV 301935Z AUTO 02012KT 10SM FEW023 SCT033 27/18 A3012 RMK A01
KHHV 301915Z AUTO 02012KT 10SM FEW022 SCT027 SCT035 27/18 A3012 RMK A01
KHHV 301855Z AUTO 02011KT 10SM SCT022 BKN028 BKN037 26/18 A3013 RMK A01
KHHV 301835Z AUTO 02010KT 10SM SCT024 SCT033 27/18 A3014 RMK A01
KHHV 301815Z AUTO 02010KT 10SM SCT024 26/18 A3014 RMK A01
KHHV 301755Z AUTO 01009KT 10SM FEW022 26/18 A3015 RMK A01
KHHV 301735Z AUTO 02011KT 10SM SCT022 27/18 A3016 RMK A01
KHHV 301715Z AUTO 02010KT 10SM FEW022 27/18 A3017 RMK A01
KHHV 301655Z AUTO 03011KT 10SM CLR 27/18 A3017 RMK A01
KHHV 301635Z AUTO 02011KT 10SM CLR 26/18 A3018 RMK A01
KHHV 301615Z AUTO 01009KT 10SM CLR 25/18 A3018 RMK A01
KHHV 301555Z AUTO 01010KT 10SM FEW021 FEW028 25/18 A3018 RMK A01
KHHV 301535Z AUTO 01008KT 10SM SCT022 SCT027 24/18 A3019 RMK A01
KHHV 301515Z AUTO 01008KT 9SM SCT026 24/18 A3019 RMK A01
KHHV 301455Z AUTO 36007KT 10SM BKN026 BKN032 24/18 A3018 RMK A01
KHHV 301435Z AUTO 01008KT 10SM BKN025 BKN030 BKN036 24/18 A3018 RMK A01
KHHV 301415Z AUTO 36006KT 10SM SCT025 BKN031 BKN036 24/18 A3017 RMK A01
KHHV 301355Z AUTO 01005KT 10SM BKN025 OVC031 23/18 A3017 RMK A01
KHHV 301335Z AUTO 36005KT 10SM BKN025 BKN031 23/18 A3016 RMK A01
KHHV 301315Z AUTO 36005KT 10SM SCT027 23/17 A3015 RMK A01
KHHV 301255Z AUTO 35006KT 10SM SCT025 SCT030 23/17 A3014 RMK A01
KHHV 301235Z AUTO 36006KT 10SM SCT027 23/17 A3014 RMK A01
KHHV 301215Z AUTO 35007KT 10SM FEW025 SCT031 23/18 A3014 RMK A01
KHHV 301155Z AUTO 36005G11KT 10SM SCT030 23/17 A3013 RMK A01
KHHV 301135Z AUTO 35005KT 10SM BKN029 23/18 A3012 RMK A01
KHHV 301115Z AUTO 35006KT 10SM BKN028 BKN033 23/18 A3012 RMK A01
KHHV 301055Z AUTO 36005KT 10SM OVC028 23/18 A3012 RMK A01
KHHV 301035Z AUTO 36005KT 10SM BKN029 23/18 A3012 RMK A01
KHHV 301015Z AUTO 36004KT 10SM CLR 23/18 A3012 RMK A01
KHHV 300955Z AUTO 34006KT 10SM FEW024 23/17 A3012 RMK A01
KHHV 300935Z AUTO 36004KT 10SM FEW025 23/17 A3013 RMK A01
KHHV 300915Z AUTO 36004KT 10SM SCT026 SCT033 23/17 A3013 RMK A01
KHHV 300855Z AUTO 03006KT 10SM BKN025 BKN030 23/17 A3013 RMK A01
KHHV 300835Z AUTO 02005KT 10SM BKN025 BKN030 23/18 A3013 RMK A01
KHHV 300815Z AUTO 02005KT 10SM FEW024 FEW030 23/18 A3014 RMK A01
KHHV 300755Z AUTO 02005KT 10SM CLR 23/17 A3014 RMK A01
KHHV 300735Z AUTO 01006KT 10SM FEW023 SCT028 23/18 A3014 RMK A01
KHHV 300715Z AUTO 01006KT 10SM BKN023 OVC028 23/18 A3014 RMK A01
KHHV 300655Z AUTO 36004KT 10SM BKN024 BKN032 23/18 A3014 RMK A01
KHHV 300635Z AUTO 02006KT 10SM OVC024 23/18 A3014 RMK A01
KHHV 300615Z AUTO 03006KT 10SM BKN023 23/18 A3015 RMK A01
KHHV 300555Z AUTO 03008KT 10SM BKN024 23/18 A3015 RMK A01
KHHV 300535Z AUTO 03007KT 10SM BKN023 23/18 A3015 RMK A01
KHHV 300515Z AUTO 02006KT 10SM OVC024 23/18 A3016 RMK A01
KHHV 300455Z AUTO 04008KT 10SM OVC024 23/18 A3016 RMK A01
KHHV 300435Z AUTO 02006KT 10SM BKN024 23/17 A3016 RMK A01
KHHV 300415Z AUTO 03005KT 10SM SCT023 23/17 A3016 RMK A01
KHHV 300355Z AUTO 03007KT 10SM CLR 23/16 A3016 RMK A01
KHHV 300335Z AUTO 03007KT 10SM CLR 23/16 A3016 RMK A01
KHHV 300315Z AUTO 02007KT 10SM CLR 23/16 A3015 RMK A01
KHHV 300255Z AUTO 02006G12KT 10SM FEW023 23/16 A3015 RMK A01
KHHV 300235Z AUTO 03008KT 10SM FEW023 23/16 A3015 RMK A01
KHHV 300215Z AUTO 02009KT 10SM FEW025 23/16 A3015 RMK A01
KHHV 300155Z AUTO 02008KT 10SM FEW025 23/16 A3015 RMK A01
KHHV 300135Z AUTO 02008G13KT 10SM FEW025 23/16 A3015 RMK A01
KHHV 300115Z AUTO 03008KT 10SM CLR 23/16 A3015 RMK A01
KHHV 300055Z AUTO 01008KT 10SM FEW025 23/16 A3014 RMK A01
KHHV 300035Z AUTO 01008KT 10SM FEW026 23/16 A3014 RMK A01
KHHV 300015Z AUTO 01008KT 10SM FEW030 23/16 A3013 RMK A01
KHHV 292355Z AUTO 01008KT 10SM FEW031 23/15 A3013 RMK A01
KHHV 292335Z AUTO 01010KT 10SM CLR 23/15 A3013 RMK A01
KHHV 292315Z AUTO 01008KT 10SM FEW033 24/16 A3013 RMK A01
KHHV 292255Z AUTO 01009KT 10SM FEW033 24/16 A3012 RMK A01
KHHV 292235Z AUTO 02010KT 10SM FEW033 24/15 A3012 RMK A01
KHHV 292215Z AUTO 01008KT 10SM CLR 25/16 A3012 RMK A01
KHHV 292155Z AUTO 35008KT 10SM CLR 25/15 A3011 RMK A01
KHHV 292135Z AUTO 01009KT 10SM FEW031 26/16 A3012 RMK A01
KHHV 292115Z AUTO 36008KT 10SM FEW029 26/17 A3012 RMK A01
KHHV 292055Z AUTO 35010KT 10SM FEW030 26/17 A3012 RMK A01
KHHV 292035Z AUTO 36008G15KT 10SM CLR 26/16 A3012 RMK A01
KHHV 292015Z AUTO 35012KT 10SM FEW034 26/14 A3013 RMK A01
KHHV 291955Z AUTO 35009G14KT 10SM FEW034 26/16 A3013 RMK A01
KHHV 291935Z AUTO 35009G15KT 10SM FEW034 27/16 A3013 RMK A01
KHHV 291915Z AUTO 34013KT 10SM FEW035 27/16 A3014 RMK A01
KHHV 291855Z AUTO 35008G13KT 10SM CLR 27/15 A3015 RMK A01
KHHV 291835Z AUTO 35008KT 10SM CLR 27/15 A3015 RMK A01
KHHV 291815Z AUTO 35009KT 10SM CLR 27/16 A3016 RMK A01
KHHV 291755Z AUTO 36006KT 10SM CLR 27/16 A3017 RMK A01
KHHV 291735Z AUTO 35007KT 10SM CLR 27/16 A3018 RMK A01
KHHV 291715Z AUTO 34007G12KT 10SM CLR 27/16 A3019 RMK A01
KHHV 291655Z AUTO 33010KT 10SM CLR 27/15 A3019 RMK A01
KHHV 291635Z AUTO 35008KT 10SM CLR 27/15 A3019 RMK A01
KHHV 291615Z AUTO 34010KT 10SM CLR 26/15 A3020 RMK A01
KHHV 291555Z AUTO 35007KT 10SM CLR 26/15 A3020 RMK A01
KHHV 291535Z AUTO 35007KT 10SM CLR 25/14 A3020 RMK A01
KHHV 291515Z AUTO 35008KT 10SM CLR 25/14 A3019 RMK A01
KHHV 291455Z AUTO 34007KT 10SM CLR 25/14 A3019 RMK A01
KHHV 291435Z AUTO 34009KT 10SM CLR 25/14 A3018 RMK A01
KHHV 291415Z AUTO 35007KT 10SM CLR 24/15 A3017 RMK A01
KHHV 291355Z AUTO 35006G11KT 10SM CLR 24/15 A3016 RMK A01
KHHV 291335Z AUTO 33008KT 10SM CLR 24/15 A3015 RMK A01
KHHV 291315Z AUTO 32006KT 10SM CLR 24/15 A3015 RMK A01
KHHV 291255Z AUTO 32008KT 10SM CLR 24/15 A3014 RMK A01
KHHV 291235Z AUTO 31007KT 10SM CLR 24/15 A3014 RMK A01
KHHV 291215Z AUTO 32007KT 10SM CLR 24/15 A3013 RMK A01
KHHV 291155Z AUTO 32008KT 10SM CLR 24/15 A3013 RMK A01
KHHV 291135Z AUTO 31006KT 10SM CLR 24/15 A3013 RMK A01
KHHV 291115Z AUTO 32004KT 10SM CLR 24/15 A3013 RMK A01
KHHV 291055Z AUTO 31005KT 10SM CLR 24/15 A3013 RMK A01
KHHV 291035Z AUTO 31003KT 10SM CLR 24/15 A3013 RMK A01
KHHV 291015Z AUTO 29004KT 10SM SCT039 24/15 A3013 RMK A01
KHHV 290955Z AUTO 27004KT 10SM FEW039 24/15 A3013 RMK A01
KHHV 290935Z AUTO 00000KT 10SM CLR 24/15 A3013 RMK A01
KHHV 290915Z AUTO 16003KT 10SM CLR 24/14 A3012 RMK A01
KHHV 290855Z AUTO 14004KT 10SM FEW033 24/15 A3012 RMK A01
KHHV 290835Z AUTO 00000KT 10SM FEW033 25/15 A3012 RMK A01
KHHV 290815Z AUTO VRB04KT 10SM CLR 24/15 A3012 RMK A01
KHHV 290755Z AUTO 15004KT 10SM CLR 24/15 A3012 RMK A01
KHHV 290735Z AUTO 00000KT 10SM CLR 24/15 A3012 RMK A01
KHHV 290715Z AUTO 00000KT 10SM CLR 24/15 A3012 RMK A01
KHHV 290655Z AUTO 15004KT 10SM CLR 24/15 A3012 RMK A01
KHHV 290635Z AUTO VRB04KT 10SM CLR 24/15 A3012 RMK A01
KHHV 290615Z AUTO VRB03KT 10SM CLR 24/15 A3013 RMK A01
KHHV 290555Z AUTO 14004KT 10SM CLR 25/15 A3013 RMK A01
KHHV 290535Z AUTO 10006KT 10SM CLR 25/15 A3013 RMK A01
KHHV 290515Z AUTO 09005KT 10SM CLR 24/15 A3013 RMK A01
KHHV 290455Z AUTO VRB04KT 10SM CLR 25/15 A3013 RMK A01
KHHV 290435Z AUTO VRB04KT 10SM CLR 25/15 A3014 RMK A01
KHHV 290415Z AUTO VRB04G10KT 10SM CLR 25/14 A3013 RMK A01
KHHV 290355Z AUTO 11008KT 10SM CLR 24/14 A3012 RMK A01
KHHV 290335Z AUTO 10009KT 090V150 10SM CLR 24/14 A3012 RMK A01
KHHV 290315Z AUTO VRB06KT 10SM CLR 24/14 A3012 RMK A01
KHHV 290255Z AUTO VRB06KT 10SM CLR 24/14 A3011 RMK A01
KHHV 290235Z AUTO 12006KT 10SM CLR 24/14 A3011 RMK A01
KHHV 290215Z AUTO VRB04KT 10SM CLR 24/14 A3010 RMK A01
KHHV 290155Z AUTO 12004KT 10SM CLR 24/15 A3010 RMK A01
KHHV 290135Z AUTO 15006KT 10SM CLR 24/14 A3009 RMK A01
KHHV 290115Z AUTO 15005KT 10SM CLR 24/13 A3008 RMK A01
KHHV 290055Z AUTO 15006KT 10SM CLR 24/13 A3008 RMK A01
KHHV 290035Z AUTO VRB05KT 10SM CLR 24/14 A3007 RMK A01
KHHV 290015Z AUTO 13006KT 10SM CLR 24/14 A3006 RMK A01
KHHV 282355Z AUTO 14006KT 10SM CLR 24/14 A3005 RMK A01
KHHV 282335Z AUTO 15005KT 10SM CLR 24/13 A3005 RMK A01
KHHV 282315Z AUTO 15007KT 10SM CLR 24/13 A3005 RMK A01
KHHV 282255Z AUTO 17005G10KT 10SM CLR 25/13 A3005 RMK A01
KHHV 282235Z AUTO 14007KT 10SM CLR 25/13 A3004 RMK A01
KHHV 282215Z AUTO 16006KT 10SM CLR 25/13 A3004 RMK A01
KHHV 282155Z AUTO 15007KT 10SM CLR 26/14 A3005 RMK A01
KHHV 282135Z AUTO VRB06KT 10SM CLR 26/13 A3004 RMK A01
KHHV 282115Z AUTO 16006KT CLR 25/13 A3004 RMK A01
KHHV 282055Z AUTO 18008KT 10SM CLR 25/13 A3004 RMK A01
KHHV 282035Z AUTO 18009KT 10SM CLR 25/14 A3004 RMK A01
KHHV 282015Z AUTO VRB06KT 10SM CLR 25/14 A3005 RMK A01
KHHV 281955Z AUTO 18009KT 10SM CLR 25/14 A3005 RMK A01
KHHV 281935Z AUTO 17008KT 10SM CLR 25/15 A3005 RMK A01
KHHV 281915Z AUTO 17007KT 10SM CLR 26/14 A3006 RMK A01
KHHV 281855Z AUTO 18008KT 10SM FEW042 26/14 A3006 RMK A01
KHHV 281835Z AUTO 19007KT 150V220 10SM FEW041 FEW050 25/15 A3007 RMK A01
KHHV 281815Z AUTO 19007KT 10SM FEW040 FEW048 25/15 A3008 RMK A01
KHHV 281755Z AUTO 18008KT 10SM FEW042 FEW048 25/15 A3008 RMK A01
KHHV 281735Z AUTO 20007KT 10SM FEW043 25/15 A3009 RMK A01
KHHV 281715Z AUTO 19007G17KT 10SM SCT042 SCT049 25/15 A3009 RMK A01
KHHV 281655Z AUTO 18007KT 140V210 10SM FEW046 25/15 A3010 RMK A01
KHHV 281635Z AUTO 17008KT 10SM CLR 25/14 A3010 RMK A01
KHHV 281615Z AUTO 16006G13KT 10SM FEW041 25/14 A3010 RMK A01
KHHV 281555Z AUTO 15008KT 10SM CLR 25/14 A3009 RMK A01
KHHV 281535Z AUTO 18007KT 150V220 10SM CLR 24/13 A3009 RMK A01
KHHV 281515Z AUTO 18009KT 10SM SCT043 24/14 A3008 RMK A01
KHHV 281455Z AUTO 16006KT 10SM CLR 24/14 A3007 RMK A01
KHHV 281435Z AUTO 16007KT 9SM FEW041 24/14 A3007 RMK A01
KHHV 281415Z AUTO 16008KT 130V200 9SM FEW041 23/14 A3006 RMK A01
KHHV 281355Z AUTO 15007KT 10SM FEW038 FEW045 FEW050 23/14 A3005 RMK A01
KHHV 281335Z AUTO 14007G14KT 10SM BKN038 BKN044 BKN050 23/14 A3005 RMK A01
KHHV 281315Z AUTO 13006KT 10SM BKN038 BKN044 BKN050 23/14 A3004 RMK A01
KHHV 281255Z AUTO 15006KT 10SM FEW039 23/14 A3004 RMK A01
KHHV 281235Z AUTO VRB06G11KT 10SM FEW042 SCT049 23/14 A3003 RMK A01
KHHV 281215Z AUTO 13007KT 050V160 10SM BKN041 BKN050 23/14 A3003 RMK A01
KHHV 281155Z AUTO 13006KT 10SM BKN041 OVC049 23/14 A3003 RMK A01
KHHV 281135Z AUTO 17007KT 10SM BKN043 23/13 A3003 RMK A01
KHHV 281115Z AUTO VRB06KT 10SM FEW043 23/13 A3003 RMK A01
KHHV 281055Z AUTO VRB06G12KT 10SM CLR 22/12 A3002 RMK A01
KHHV 281035Z AUTO 15011KT 10SM CLR 22/12 A3003 RMK A01
KHHV 281015Z AUTO 16011KT 10SM CLR 22/12 A3003 RMK A01
KHHV 280955Z AUTO 16008G15KT 10SM CLR 23/11 A3003 RMK A01
KHHV 280935Z AUTO 12007G13KT 090V170 10SM FEW048 22/11 A3003 RMK A01
KHHV 280915Z AUTO 14008KT 10SM BKN048 23/11 A3003 RMK A01
KHHV 280855Z AUTO 12007G13KT 090V150 10SM SCT043 BKN050 22/12 A3003 RMK A01
KHHV 280835Z AUTO VRB05G13KT 10SM FEW043 FEW050 22/13 A3003 RMK A01
KHHV 280815Z AUTO VRB06G14KT 10SM FEW044 22/13 A3004 RMK A01
KHHV 280755Z AUTO 12011KT 10SM FEW045 22/12 A3004 RMK A01
KHHV 280735Z AUTO 12007G14KT 10SM CLR 22/11 A3005 RMK A01
KHHV 280715Z AUTO 12009KT 100V160 10SM FEW047 22/10 A3006 RMK A01
KHHV 280655Z AUTO 12009KT 10SM SCT047 22/11 A3006 RMK A01
KHHV 280635Z AUTO 12009KT 080V160 10SM FEW046 22/11 A3007 RMK A01
KHHV 280615Z AUTO 12009G15KT 10SM SCT043 22/11 A3007 RMK A01
KHHV 280555Z AUTO 11012KT 10SM SCT042 22/12 A3007 RMK A01
KHHV 280535Z AUTO 11011KT 10SM CLR 22/11 A3008 RMK A01
KHHV 280515Z AUTO 12009KT 10SM FEW037 22/12 A3008 RMK A01
KHHV 280455Z AUTO 11009G14KT 10SM CLR 22/12 A3009 RMK A01
KHHV 280435Z AUTO 11012KT 10SM FEW039 22/12 A3009 RMK A01
KHHV 280415Z AUTO 10011KT 10SM FEW039 22/12 A3009 RMK A01
KHHV 280355Z AUTO 10012KT 10SM CLR 23/12 A3009 RMK A01
KHHV 280335Z AUTO 10012KT 10SM CLR 23/12 A3010 RMK A01
KHHV 280315Z AUTO 11011KT 10SM CLR 23/11 A3010 RMK A01
KHHV 280255Z AUTO 10009KT 10SM CLR 23/12 A3010 RMK A01
KHHV 280235Z AUTO 09009KT 10SM CLR 24/12 A3010 RMK A01
KHHV 280215Z AUTO 10011KT 10SM FEW042 24/12 A3009 RMK A01
KHHV 280155Z AUTO 09012KT 10SM SCT042 24/12 A3009 RMK A01
KHHV 280135Z AUTO 10011KT 10SM CLR 24/12 A3009 RMK A01
KHHV 280115Z AUTO 09011KT 10SM SCT044 25/12 A3009 RMK A01
KHHV 280055Z AUTO 09012KT 10SM SCT043 24/12 A3008 RMK A01
KHHV 280035Z AUTO 08008KT 10SM SCT042 24/12 A3008 RMK A01
KHHV 280015Z AUTO 08010KT 10SM SCT043 24/12 A3007 RMK A01
KHHV 272355Z AUTO 08008KT 10SM SCT043 24/12 A3007 RMK A01